Observation data for Mertzon on 02/14/2020      Previous  Date  Next       Current Mesonet Observations  Soil Data  Daily Summary Page  Observations in Plain Language
KME1 140600Z 07006KT 01/00 A3035 RMK A01 T00080003  RH  096%=      5-min Rain = 0
KME1 140601Z 09006KT 01/00 A3035 RMK A01 T00080003  RH  096%=      5-min Rain = 0
KME1 140602Z 08006KT 01/00 A3035 RMK A01 T00080003  RH  096%=      5-min Rain = 0
KME1 140603Z 09008KT 01/00 A3035 RMK A01 T00080003  RH  096%=      5-min Rain = 0
KME1 140604Z 09009KT 01/00 A3035 RMK A01 T00070002  RH  096%=      5-min Rain = 0
KME1 140605Z 08009KT 01/00 A3035 RMK A01 T00070002  RH  096%=      5-min Rain = 0
KME1 140606Z 09010KT 01/00 A3035 RMK A01 T00080002  RH  096%=      5-min Rain = 0
KME1 140607Z 08011KT 01/00 A3035 RMK A01 T00070001  RH  096%=      5-min Rain = 0
KME1 140608Z 08008KT 01/00 A3035 RMK A01 T00070000  RH  095%=      5-min Rain = 0
KME1 140609Z 09007KT 01/00 A3035 RMK A01 T00070000  RH  095%=      5-min Rain = 0
KME1 140610Z 08006KT 01/00 A3035 RMK A01 T00070000  RH  095%=      5-min Rain = 0
KME1 140611Z 09007KT 01/00 A3035 RMK A01 T00070001  RH  096%=      5-min Rain = 0
KME1 140612Z 08008KT 01/00 A3035 RMK A01 T00070001  RH  095%=      5-min Rain = 0
KME1 140613Z 08010KT 01/00 A3035 RMK A01 T00070000  RH  095%=      5-min Rain = 0
KME1 140614Z 08010KT 01/00 A3035 RMK A01 T000700-0  RH  095%=      5-min Rain = 0
KME1 140615Z 09008KT 01/00 A3035 RMK A01 T000700-0  RH  095%=      5-min Rain = 0
KME1 140616Z 09010KT 01/M00 A3035 RMK A01 T00071001  RH  095%=      5-min Rain = 0
KME1 140617Z 08009KT 01/00 A3035 RMK A01 T000700-0  RH  095%=      5-min Rain = 0
KME1 140618Z 08007KT 01/00 A3035 RMK A01 T000700-0  RH  095%=      5-min Rain = 0
KME1 140619Z 09008KT 01/00 A3035 RMK A01 T000600-0  RH  095%=      5-min Rain = 0
KME1 140620Z 09009KT 01/00 A3035 RMK A01 T00070000  RH  095%=      5-min Rain = 0
KME1 140621Z 09011KT 01/00 A3035 RMK A01 T000600-0  RH  095%=      5-min Rain = 0
KME1 140622Z 08008KT 01/M00 A3035 RMK A01 T00061001  RH  095%=      5-min Rain = 0
KME1 140623Z 09009KT 01/00 A3035 RMK A01 T000600-0  RH  095%=      5-min Rain = 0
KME1 140624Z 08009KT 01/00 A3035 RMK A01 T000600-0  RH  095%=      5-min Rain = 0
KME1 140625Z 08008KT 01/M00 A3035 RMK A01 T00061001  RH  095%=      5-min Rain = 0
KME1 140626Z 08008KT 01/M00 A3035 RMK A01 T00061001  RH  096%=      5-min Rain = 0
KME1 140627Z 09008KT 01/00 A3035 RMK A01 T000600-0  RH  096%=      5-min Rain = 0
KME1 140628Z 09007KT 01/00 A3035 RMK A01 T000600-0  RH  096%=      5-min Rain = 0
KME1 140629Z 08008KT 01/00 A3035 RMK A01 T00060000  RH  096%=      5-min Rain = 0
KME1 140630Z 08006KT 01/00 A3035 RMK A01 T000600-0  RH  096%=      5-min Rain = 0
KME1 140631Z 08009KT 01/00 A3035 RMK A01 T00060000  RH  096%=      5-min Rain = 0
KME1 140632Z 08007KT 01/00 A3035 RMK A01 T000600-0  RH  096%=      5-min Rain = 0
KME1 140633Z 07009KT 01/00 A3035 RMK A01 T000600-0  RH  096%=      5-min Rain = 0
KME1 140634Z 07009KT 01/M00 A3035 RMK A01 T00051001  RH  096%=      5-min Rain = 0
KME1 140635Z 08008KT 01/M00 A3035 RMK A01 T00051001  RH  096%=      5-min Rain = 0
KME1 140636Z 09009KT 01/M00 A3035 RMK A01 T00051001  RH  096%=      5-min Rain = 0
KME1 140637Z 08009KT 01/M00 A3035 RMK A01 T00051001  RH  096%=      5-min Rain = 0
KME1 140638Z 08008KT 01/00 A3035 RMK A01 T000500-0  RH  096%=      5-min Rain = 0
KME1 140639Z 08008KT 01/00 A3035 RMK A01 T000500-0  RH  096%=      5-min Rain = 0
KME1 140640Z 08008KT 01/M00 A3034 RMK A01 T00051001  RH  096%=      5-min Rain = 0
KME1 140641Z 08010KT 01/M00 A3035 RMK A01 T00051001  RH  096%=      5-min Rain = 0
KME1 140642Z 08008KT 01/M00 A3035 RMK A01 T00051001  RH  096%=      5-min Rain = 0
KME1 140643Z 08010KT 01/M00 A3034 RMK A01 T00051001  RH  096%=      5-min Rain = 0
KME1 140644Z 08011KT 01/M00 A3035 RMK A01 T00051001  RH  096%=      5-min Rain = 0
KME1 140645Z 09009KT 00/M00 A3035 RMK A01 T00041001  RH  096%=      5-min Rain = 0
KME1 140646Z 08008KT 00/M00 A3035 RMK A01 T00041002  RH  096%=      5-min Rain = 0
KME1 140647Z 08010KT 01/M00 A3035 RMK A01 T00051001  RH  096%=      5-min Rain = 0
KME1 140648Z 07008KT 00/M00 A3035 RMK A01 T00041001  RH  096%=      5-min Rain = 0
KME1 140649Z 07009KT 00/M00 A3035 RMK A01 T00041001  RH  096%=      5-min Rain = 0
KME1 140650Z 07007KT 00/M00 A3035 RMK A01 T00041001  RH  097%=      5-min Rain = 0
KME1 140651Z 07009KT 00/M00 A3035 RMK A01 T00041001  RH  097%=      5-min Rain = 0
KME1 140652Z 08008KT 00/00 A3035 RMK A01 T000400-0  RH  097%=      5-min Rain = 0
KME1 140653Z 08009KT 00/M00 A3034 RMK A01 T00041001  RH  097%=      5-min Rain = 0
KME1 140654Z 08008KT 00/M00 A3034 RMK A01 T00041001  RH  096%=      5-min Rain = 0
KME1 140655Z 08008KT 00/M00 A3034 RMK A01 T00041001  RH  097%=      5-min Rain = 0
KME1 140656Z 08008KT 00/M00 A3034 RMK A01 T00041001  RH  097%=      5-min Rain = 0
KME1 140657Z 08007KT 00/00 A3034 RMK A01 T000400-0  RH  097%=      5-min Rain = 0
KME1 140658Z 08007KT 00/M00 A3034 RMK A01 T00041001  RH  097%=      5-min Rain = 0
KME1 140659Z 08007KT 00/M00 A3034 RMK A01 T00041001  RH  096%=      5-min Rain = 0
KME1 140700Z 08007KT 00/M00 A3035 RMK A01 T00041001  RH  097%=      5-min Rain = 0
KME1 140701Z 09008KT 00/M00 A3034 RMK A01 T00041001  RH  097%=      5-min Rain = 0
KME1 140702Z 09008KT 00/M00 A3035 RMK A01 T00041001  RH  096%=      5-min Rain = 0
KME1 140703Z 09006KT 00/M00 A3035 RMK A01 T00041001  RH  096%=      5-min Rain = 0
KME1 140704Z 09008KT 00/M00 A3035 RMK A01 T00041001  RH  096%=      5-min Rain = 0
KME1 140705Z 09007KT 00/M00 A3035 RMK A01 T00041002  RH  096%=      5-min Rain = 0
KME1 140706Z 09006KT 00/M00 A3035 RMK A01 T00041002  RH  096%=      5-min Rain = 0
KME1 140707Z 09005KT 00/M00 A3035 RMK A01 T00041002  RH  096%=      5-min Rain = 0
KME1 140708Z 08007KT 00/M00 A3035 RMK A01 T00041002  RH  096%=      5-min Rain = 0
KME1 140709Z 09008KT 00/M00 A3035 RMK A01 T00041002  RH  096%=      5-min Rain = 0
KME1 140710Z 09008KT 00/M00 A3035 RMK A01 T00041002  RH  096%=      5-min Rain = 0
KME1 140711Z 09008KT 00/M00 A3035 RMK A01 T00041002  RH  096%=      5-min Rain = 0
KME1 140712Z 09007KT 00/M00 A3035 RMK A01 T00041002  RH  096%=      5-min Rain = 0
KME1 140713Z 11006KT 00/M00 A3035 RMK A01 T00041002  RH  096%=      5-min Rain = 0
KME1 140714Z 10008KT 00/M00 A3035 RMK A01 T00041002  RH  096%=      5-min Rain = 0
KME1 140715Z 09008G13KT 00/M00 A3035 RMK A01 T00041002  RH  096%=      5-min Rain = 0
KME1 140716Z 09008KT 00/M00 A3035 RMK A01 T00041002  RH  096%=      5-min Rain = 0
KME1 140717Z 09006KT 00/M00 A3035 RMK A01 T00031003  RH  096%=      5-min Rain = 0
KME1 140718Z 08006KT 00/M00 A3035 RMK A01 T00031003  RH  096%=      5-min Rain = 0
KME1 140719Z 10006KT 00/M00 A3035 RMK A01 T00031003  RH  096%=      5-min Rain = 0
KME1 140720Z 09005KT 00/M00 A3035 RMK A01 T00031003  RH  096%=      5-min Rain = 0
KME1 140721Z 09007KT 00/M00 A3035 RMK A01 T00031003  RH  096%=      5-min Rain = 0
KME1 140722Z 09008KT 00/M00 A3035 RMK A01 T00031003  RH  096%=      5-min Rain = 0
KME1 140723Z 11006KT 00/M00 A3034 RMK A01 T00041003  RH  096%=      5-min Rain = 0
KME1 140724Z 09005KT 00/M00 A3034 RMK A01 T00041003  RH  096%=      5-min Rain = 0
KME1 140725Z 10006KT 00/M00 A3035 RMK A01 T00031003  RH  096%=      5-min Rain = 0
KME1 140726Z 11009KT 00/M00 A3035 RMK A01 T00031003  RH  095%=      5-min Rain = 0
KME1 140727Z 10007KT 00/M00 A3035 RMK A01 T00031004  RH  095%=      5-min Rain = 0
KME1 140728Z 09006KT 00/M00 A3035 RMK A01 T00031004  RH  095%=      5-min Rain = 0
KME1 140729Z 10008KT 00/M00 A3035 RMK A01 T00031004  RH  095%=      5-min Rain = 0
KME1 140730Z 10009G14KT 00/M01 A3035 RMK A01 T00031005  RH  094%=      5-min Rain = 0
KME1 140731Z 09010KT 00/M01 A3035 RMK A01 T00031006  RH  094%=      5-min Rain = 0
KME1 140732Z 10007KT 00/M01 A3035 RMK A01 T00031006  RH  094%=      5-min Rain = 0
KME1 140733Z 09008KT 00/M01 A3035 RMK A01 T00031006  RH  094%=      5-min Rain = 0
KME1 140734Z 09008KT 00/M01 A3035 RMK A01 T00031006  RH  094%=      5-min Rain = 0
KME1 140735Z 09008KT 00/M01 A3034 RMK A01 T00021007  RH  093%=      5-min Rain = 0
KME1 140736Z 09009KT 00/M01 A3034 RMK A01 T00021007  RH  094%=      5-min Rain = 0
KME1 140737Z 09007KT 00/M01 A3034 RMK A01 T00021007  RH  094%=      5-min Rain = 0
KME1 140738Z 10007KT 00/M01 A3034 RMK A01 T00021007  RH  094%=      5-min Rain = 0
KME1 140739Z 08006KT 00/M01 A3034 RMK A01 T00021007  RH  094%=      5-min Rain = 0
KME1 140740Z 09007KT 00/M01 A3034 RMK A01 T00021007  RH  094%=      5-min Rain = 0
KME1 140741Z 11006KT 00/M01 A3034 RMK A01 T00021007  RH  094%=      5-min Rain = 0
KME1 140742Z 11007KT 00/M01 A3034 RMK A01 T00021007  RH  094%=      5-min Rain = 0
KME1 140743Z 09005KT 00/M01 A3034 RMK A01 T00011007  RH  094%=      5-min Rain = 0
KME1 140744Z 10006KT 00/M01 A3034 RMK A01 T00021006  RH  094%=      5-min Rain = 0
KME1 140745Z 10008KT 00/M01 A3034 RMK A01 T00021007  RH  094%=      5-min Rain = 0
KME1 140746Z 09006KT 00/M01 A3034 RMK A01 T00011008  RH  094%=      5-min Rain = 0
KME1 140747Z 10008KT 00/M01 A3034 RMK A01 T00011008  RH  094%=      5-min Rain = 0
KME1 140748Z 10007KT 00/M01 A3034 RMK A01 T00011008  RH  094%=      5-min Rain = 0
KME1 140749Z 10006KT 00/M01 A3034 RMK A01 T00011008  RH  094%=      5-min Rain = 0
KME1 140750Z 10007KT 00/M01 A3034 RMK A01 T00011008  RH  094%=      5-min Rain = 0
KME1 140751Z 11006KT 00/M01 A3034 RMK A01 T00011008  RH  094%=      5-min Rain = 0
KME1 140752Z 10007KT 00/M01 A3034 RMK A01 T00011007  RH  094%=      5-min Rain = 0
KME1 140753Z 10007KT 00/M01 A3034 RMK A01 T00011008  RH  094%=      5-min Rain = 0
KME1 140754Z 10005KT 00/M01 A3034 RMK A01 T00011008  RH  094%=      5-min Rain = 0
KME1 140755Z 10005KT 00/M01 A3034 RMK A01 T00011008  RH  094%=      5-min Rain = 0
KME1 140756Z 10007KT 00/01 A3034 RMK A01 T000000-9  RH  094%=      5-min Rain = 0
KME1 140757Z 10006KT 00/01 A3034 RMK A01 T000000-9  RH  094%=      5-min Rain = 0
KME1 140758Z 10008KT 00/01 A3034 RMK A01 T000000-9  RH  094%=      5-min Rain = 0
KME1 140759Z 10007KT 00/01 A3034 RMK A01 T000000-9  RH  094%=      5-min Rain = 0
KME1 140800Z 10004KT 00/01 A3034 RMK A01 T000000-9  RH  094%=      5-min Rain = 0
KME1 140801Z 10005KT 00/01 A3034 RMK A01 T00-000-9  RH  093%=      5-min Rain = 0
KME1 140802Z 10007KT 00/01 A3034 RMK A01 T00-00-10  RH  093%=      5-min Rain = 0
KME1 140803Z 11005KT M00/M01 A3034 RMK A01 T10011010  RH  094%=      5-min Rain = 0
KME1 140804Z 10005KT M00/M01 A3034 RMK A01 T10011010  RH  094%=      5-min Rain = 0
KME1 140805Z 10004KT M00/M01 A3034 RMK A01 T10021011  RH  094%=      5-min Rain = 0
KME1 140806Z 11005KT M00/M01 A3034 RMK A01 T10031012  RH  094%=      5-min Rain = 0
KME1 140807Z 10004KT M00/M01 A3034 RMK A01 T10031011  RH  094%=      5-min Rain = 0
KME1 140808Z 10004KT M00/M01 A3034 RMK A01 T10041012  RH  094%=      5-min Rain = 0
KME1 140809Z 09006KT M00/M01 A3034 RMK A01 T10041012  RH  094%=      5-min Rain = 0
KME1 140810Z 09005KT M01/M01 A3034 RMK A01 T10051012  RH  095%=      5-min Rain = 0
KME1 140811Z 09006KT M00/M01 A3035 RMK A01 T10041011  RH  095%=      5-min Rain = 0
KME1 140812Z 09005KT M00/M01 A3034 RMK A01 T10041011  RH  096%=      5-min Rain = 0
KME1 140813Z 09005KT M00/M01 A3034 RMK A01 T10041010  RH  096%=      5-min Rain = 0
KME1 140814Z 09006KT M01/M01 A3034 RMK A01 T10051010  RH  096%=      5-min Rain = 0
KME1 140815Z 10007KT M01/M01 A3034 RMK A01 T10051010  RH  096%=      5-min Rain = 0
KME1 140816Z 09004KT M01/M01 A3034 RMK A01 T10051009  RH  097%=      5-min Rain = 0
KME1 140817Z 10005KT M01/M01 A3034 RMK A01 T10051010  RH  096%=      5-min Rain = 0
KME1 140818Z 11006KT M01/M01 A3034 RMK A01 T10061011  RH  096%=      5-min Rain = 0
KME1 140819Z 11006KT M01/M01 A3034 RMK A01 T10061011  RH  097%=      5-min Rain = 0
KME1 140820Z 11005KT M01/M01 A3034 RMK A01 T10071011  RH  097%=      5-min Rain = 0
KME1 140821Z 12005KT M01/M01 A3034 RMK A01 T10071010  RH  098%=      5-min Rain = 0
KME1 140822Z 11004KT M01/M01 A3034 RMK A01 T10071009  RH  098%=      5-min Rain = 0
KME1 140823Z 09004KT M01/M01 A3034 RMK A01 T10071010  RH  098%=      5-min Rain = 0
KME1 140824Z 10003KT M01/M01 A3034 RMK A01 T10081011  RH  098%=      5-min Rain = 0
KME1 140825Z 09004KT M01/M01 A3034 RMK A01 T10091012  RH  098%=      5-min Rain = 0
KME1 140826Z 09003KT M01/M01 A3034 RMK A01 T10101012  RH  098%=      5-min Rain = 0
KME1 140827Z 10003KT M01/M01 A3034 RMK A01 T10101011  RH  099%=      5-min Rain = 0
KME1 140828Z 10004KT M01/M01 A3034 RMK A01 T10101012  RH  099%=      5-min Rain = 0
KME1 140829Z 10004KT M01/M01 A3034 RMK A01 T10101011  RH  100%=      5-min Rain = 0
KME1 140830Z 10004KT M01/M01 A3034 RMK A01 T10101010  RH  100%=      5-min Rain = 0
KME1 140831Z 10004KT M01/M01 A3034 RMK A01 T10111011  RH  100%=      5-min Rain = 0
KME1 140832Z 11004KT M01/M01 A3034 RMK A01 T10111011  RH  100%=      5-min Rain = 0
KME1 140833Z 10003KT M01/M01 A3034 RMK A01 T10111011  RH  100%=      5-min Rain = 0
KME1 140834Z 09004KT M01/M01 A3034 RMK A01 T10121012  RH  100%=      5-min Rain = 0
KME1 140835Z 09004KT M01/M01 A3034 RMK A01 T10121012  RH  100%=      5-min Rain = 0
KME1 140836Z 09003KT M01/M01 A3034 RMK A01 T10121012  RH  100%=      5-min Rain = 0
KME1 140837Z 08003KT M01/M01 A3033 RMK A01 T10131013  RH  100%=      5-min Rain = 0
KME1 140838Z 08003KT M01/M01 A3033 RMK A01 T10131013  RH  100%=      5-min Rain = 0
KME1 140839Z 08003KT M01/M01 A3033 RMK A01 T10141014  RH  100%=      5-min Rain = 0
KME1 140840Z 09003KT M01/M01 A3033 RMK A01 T10141014  RH  100%=      5-min Rain = 0
KME1 140841Z 10003KT M01/M01 A3033 RMK A01 T10141014  RH  100%=      5-min Rain = 0
KME1 140842Z 11003KT M01/M01 A3033 RMK A01 T10141014  RH  100%=      5-min Rain = 0
KME1 140843Z 10003KT M01/M01 A3033 RMK A01 T10141014  RH  100%=      5-min Rain = 0
KME1 140844Z 10002KT M01/M01 A3033 RMK A01 T10141014  RH  100%=      5-min Rain = 0
KME1 140845Z 09002KT M02/M02 A3033 RMK A01 T10151015  RH  100%=      5-min Rain = 0
KME1 140846Z 09003KT M02/M02 A3033 RMK A01 T10151015  RH  100%=      5-min Rain = 0
KME1 140847Z 08003KT M02/M02 A3033 RMK A01 T10161016  RH  100%=      5-min Rain = 0
KME1 140848Z 08003KT M02/M02 A3033 RMK A01 T10161016  RH  100%=      5-min Rain = 0
KME1 140849Z 08003KT M02/M02 A3033 RMK A01 T10161016  RH  100%=      5-min Rain = 0
KME1 140850Z 08002KT M02/M02 A3033 RMK A01 T10161017  RH  100%=      5-min Rain = 0
KME1 140851Z 08003KT M02/M02 A3033 RMK A01 T10171017  RH  100%=      5-min Rain = 0
KME1 140852Z 08003KT M02/M02 A3033 RMK A01 T10171017  RH  100%=      5-min Rain = 0
KME1 140853Z 09002KT M02/M02 A3033 RMK A01 T10171017  RH  100%=      5-min Rain = 0
KME1 140854Z 09003KT M02/M02 A3033 RMK A01 T10171017  RH  100%=      5-min Rain = 0
KME1 140855Z 10002KT M02/M02 A3033 RMK A01 T10171018  RH  100%=      5-min Rain = 0
KME1 140856Z 09002KT M02/M02 A3033 RMK A01 T10171017  RH  100%=      5-min Rain = 0
KME1 140857Z 09003KT M02/M02 A3033 RMK A01 T10171017  RH  100%=      5-min Rain = 0
KME1 140858Z 08003KT M02/M02 A3033 RMK A01 T10181018  RH  100%=      5-min Rain = 0
KME1 140859Z 09003KT M02/M02 A3033 RMK A01 T10171017  RH  100%=      5-min Rain = 0
KME1 140900Z 08002KT M02/M02 A3033 RMK A01 T10171017  RH  100%=      5-min Rain = 0
KME1 140901Z 08002KT M02/M02 A3033 RMK A01 T10171017  RH  100%=      5-min Rain = 0
KME1 140902Z 08002KT M02/M02 A3033 RMK A01 T10171017  RH  100%=      5-min Rain = 0
KME1 140903Z 08002KT M02/M02 A3033 RMK A01 T10181018  RH  100%=      5-min Rain = 0
KME1 140904Z 08002KT M02/M02 A3033 RMK A01 T10181018  RH  100%=      5-min Rain = 0
KME1 140905Z 07002KT M02/M02 A3033 RMK A01 T10181018  RH  100%=      5-min Rain = 0
KME1 140906Z 08002KT M02/M02 A3033 RMK A01 T10181018  RH  100%=      5-min Rain = 0
KME1 140907Z 07002KT M02/M02 A3033 RMK A01 T10181018  RH  100%=      5-min Rain = 0
KME1 140908Z 08002KT M02/M02 A3033 RMK A01 T10171017  RH  100%=      5-min Rain = 0
KME1 140909Z 08002KT M02/M02 A3033 RMK A01 T10171017  RH  100%=      5-min Rain = 0
KME1 140910Z 09002KT M02/M02 A3033 RMK A01 T10171017  RH  100%=      5-min Rain = 0
KME1 140911Z 08002KT M02/M02 A3033 RMK A01 T10171017  RH  100%=      5-min Rain = 0
KME1 140912Z 07003KT M02/M02 A3033 RMK A01 T10161017  RH  100%=      5-min Rain = 0
KME1 140913Z 07002KT M02/M02 A3033 RMK A01 T10161017  RH  100%=      5-min Rain = 0
KME1 140914Z 07003KT M02/M02 A3033 RMK A01 T10161016  RH  100%=      5-min Rain = 0
KME1 140915Z 07003KT M02/M02 A3033 RMK A01 T10161016  RH  100%=      5-min Rain = 0
KME1 140916Z 06003KT M02/M02 A3033 RMK A01 T10151016  RH  100%=      5-min Rain = 0
KME1 140917Z 07003KT M02/M02 A3033 RMK A01 T10151015  RH  100%=      5-min Rain = 0
KME1 140918Z 07003KT M01/M02 A3033 RMK A01 T10141015  RH  100%=      5-min Rain = 0
KME1 140919Z 06002KT M01/M01 A3033 RMK A01 T10141014  RH  100%=      5-min Rain = 0
KME1 140920Z 08003KT M01/M01 A3033 RMK A01 T10141014  RH  100%=      5-min Rain = 0
KME1 140921Z 09002KT M01/M01 A3033 RMK A01 T10131013  RH  100%=      5-min Rain = 0
KME1 140922Z 09002KT M01/M01 A3033 RMK A01 T10131013  RH  100%=      5-min Rain = 0
KME1 140923Z 09001KT M01/M01 A3033 RMK A01 T10131013  RH  100%=      5-min Rain = 0
KME1 140924Z 10003KT M01/M01 A3033 RMK A01 T10131013  RH  100%=      5-min Rain = 0
KME1 140925Z 10002KT M01/M01 A3033 RMK A01 T10121013  RH  100%=      5-min Rain = 0
KME1 140926Z 10003KT M01/M01 A3033 RMK A01 T10121012  RH  100%=      5-min Rain = 0
KME1 140927Z 10003KT M01/M01 A3033 RMK A01 T10121012  RH  100%=      5-min Rain = 0
KME1 140928Z 09003KT M01/M01 A3033 RMK A01 T10121012  RH  100%=      5-min Rain = 0
KME1 140929Z 09003KT M01/M01 A3033 RMK A01 T10121012  RH  100%=      5-min Rain = 0
KME1 140930Z 08002KT M01/M01 A3033 RMK A01 T10121012  RH  100%=      5-min Rain = 0
KME1 140931Z 09002KT M01/M01 A3033 RMK A01 T10121012  RH  100%=      5-min Rain = 0
KME1 140932Z 09003KT M01/M01 A3033 RMK A01 T10121012  RH  100%=      5-min Rain = 0
KME1 140933Z 08002KT M01/M01 A3033 RMK A01 T10121012  RH  100%=      5-min Rain = 0
KME1 140934Z 08002KT M01/M01 A3033 RMK A01 T10121012  RH  100%=      5-min Rain = 0
KME1 140935Z 08002KT M01/M01 A3033 RMK A01 T10121012  RH  100%=      5-min Rain = 0
KME1 140936Z 07002KT M01/M01 A3033 RMK A01 T10121012  RH  100%=      5-min Rain = 0
KME1 140937Z 07002KT M01/M01 A3033 RMK A01 T10121012  RH  100%=      5-min Rain = 0
KME1 140938Z 06002KT M01/M01 A3033 RMK A01 T10121012  RH  100%=      5-min Rain = 0
KME1 140939Z 06003KT M01/M01 A3033 RMK A01 T10121012  RH  100%=      5-min Rain = 0
KME1 140940Z 07003KT M01/M01 A3033 RMK A01 T10121012  RH  100%=      5-min Rain = 0
KME1 140941Z 06002KT M01/M01 A3033 RMK A01 T10121012  RH  100%=      5-min Rain = 0
KME1 140942Z 06003KT M01/M01 A3033 RMK A01 T10121012  RH  100%=      5-min Rain = 0
KME1 140943Z 05002KT M01/M01 A3033 RMK A01 T10121012  RH  100%=      5-min Rain = 0
KME1 140944Z 05003KT M01/M01 A3033 RMK A01 T10121012  RH  100%=      5-min Rain = 0
KME1 140945Z 04002KT M01/M01 A3033 RMK A01 T10121012  RH  100%=      5-min Rain = 0
KME1 140946Z 05003KT M01/M01 A3033 RMK A01 T10121012  RH  100%=      5-min Rain = 0
KME1 140947Z 05003KT M01/M01 A3033 RMK A01 T10121012  RH  100%=      5-min Rain = 0
KME1 140948Z 05003KT M01/M01 A3033 RMK A01 T10121012  RH  100%=      5-min Rain = 0
KME1 140949Z 05003KT M01/M01 A3033 RMK A01 T10131013  RH  100%=      5-min Rain = 0
KME1 140950Z 05003KT M01/M01 A3033 RMK A01 T10131013  RH  100%=      5-min Rain = 0
KME1 140951Z 05003KT M01/M01 A3033 RMK A01 T10141014  RH  100%=      5-min Rain = 0
KME1 140952Z 05002KT M01/M01 A3033 RMK A01 T10141014  RH  100%=      5-min Rain = 0
KME1 140953Z 05003KT M01/M01 A3033 RMK A01 T10141014  RH  100%=      5-min Rain = 0
KME1 140954Z 05002KT M01/M02 A3033 RMK A01 T10141015  RH  100%=      5-min Rain = 0
KME1 140955Z 05002KT M01/M02 A3033 RMK A01 T10141015  RH  100%=      5-min Rain = 0
KME1 140956Z 04002KT M02/M02 A3033 RMK A01 T10151015  RH  100%=      5-min Rain = 0
KME1 140957Z 04002KT M02/M02 A3033 RMK A01 T10151015  RH  100%=      5-min Rain = 0
KME1 140958Z 04002KT M02/M02 A3033 RMK A01 T10161016  RH  100%=      5-min Rain = 0
KME1 140959Z 05002KT M02/M02 A3033 RMK A01 T10161016  RH  100%=      5-min Rain = 0
KME1 141000Z 05003KT M02/M02 A3033 RMK A01 T10161016  RH  100%=      5-min Rain = 0
KME1 141001Z 05003KT M02/M02 A3033 RMK A01 T10171017  RH  100%=      5-min Rain = 0
KME1 141002Z 05003KT M02/M02 A3033 RMK A01 T10171017  RH  100%=      5-min Rain = 0
KME1 141003Z 06003KT M02/M02 A3033 RMK A01 T10181018  RH  100%=      5-min Rain = 0
KME1 141004Z 06002KT M02/M02 A3033 RMK A01 T10181018  RH  100%=      5-min Rain = 0
KME1 141005Z 07003KT M02/M02 A3033 RMK A01 T10191019  RH  100%=      5-min Rain = 0
KME1 141006Z 07003KT M02/M02 A3033 RMK A01 T10191019  RH  100%=      5-min Rain = 0
KME1 141007Z 06003KT M02/M02 A3033 RMK A01 T10201020  RH  100%=      5-min Rain = 0
KME1 141008Z 06003KT M02/M02 A3033 RMK A01 T10201020  RH  100%=      5-min Rain = 0
KME1 141009Z 06003KT M02/M02 A3033 RMK A01 T10201021  RH  100%=      5-min Rain = 0
KME1 141010Z 06003KT M02/M02 A3033 RMK A01 T10211021  RH  100%=      5-min Rain = 0
KME1 141011Z 06003KT M02/M02 A3033 RMK A01 T10211022  RH  100%=      5-min Rain = 0
KME1 141012Z 06003KT M02/M02 A3033 RMK A01 T10221022  RH  100%=      5-min Rain = 0
KME1 141013Z 07002KT M02/M02 A3033 RMK A01 T10221023  RH  100%=      5-min Rain = 0
KME1 141014Z 07003KT M02/M02 A3033 RMK A01 T10221022  RH  100%=      5-min Rain = 0
KME1 141015Z 08003KT M02/M02 A3033 RMK A01 T10221023  RH  100%=      5-min Rain = 0
KME1 141016Z 09003KT M02/M02 A3033 RMK A01 T10221023  RH  100%=      5-min Rain = 0
KME1 141017Z 09003KT M02/M02 A3033 RMK A01 T10221022  RH  100%=      5-min Rain = 0
KME1 141018Z 09003KT M02/M02 A3033 RMK A01 T10221022  RH  100%=      5-min Rain = 0
KME1 141019Z 09003KT M02/M02 A3033 RMK A01 T10221022  RH  100%=      5-min Rain = 0
KME1 141020Z 08003KT M02/M02 A3033 RMK A01 T10221023  RH  100%=      5-min Rain = 0
KME1 141021Z 08003KT M02/M02 A3033 RMK A01 T10231023  RH  100%=      5-min Rain = 0
KME1 141022Z 07003KT M02/M02 A3033 RMK A01 T10231023  RH  100%=      5-min Rain = 0
KME1 141023Z 07003KT M02/M02 A3033 RMK A01 T10231024  RH  100%=      5-min Rain = 0
KME1 141024Z 07004KT M02/M02 A3033 RMK A01 T10241024  RH  100%=      5-min Rain = 0
KME1 141025Z 06004KT M03/M03 A3033 RMK A01 T10251025  RH  100%=      5-min Rain = 0
KME1 141026Z 06004KT M03/M03 A3033 RMK A01 T10251025  RH  100%=      5-min Rain = 0
KME1 141027Z 06003KT M03/M03 A3033 RMK A01 T10251026  RH  100%=      5-min Rain = 0
KME1 141028Z 06003KT M03/M03 A3033 RMK A01 T10261026  RH  100%=      5-min Rain = 0
KME1 141029Z 06003KT M03/M03 A3033 RMK A01 T10261027  RH  100%=      5-min Rain = 0
KME1 141030Z 07003KT M03/M03 A3033 RMK A01 T10271027  RH  100%=      5-min Rain = 0
KME1 141031Z 07003KT M03/M03 A3033 RMK A01 T10271027  RH  100%=      5-min Rain = 0
KME1 141032Z 08003KT M03/M03 A3033 RMK A01 T10271027  RH  100%=      5-min Rain = 0
KME1 141033Z 08003KT M03/M03 A3033 RMK A01 T10271027  RH  100%=      5-min Rain = 0
KME1 141034Z 08003KT M03/M03 A3033 RMK A01 T10271027  RH  100%=      5-min Rain = 0
KME1 141035Z 08003KT M03/M03 A3033 RMK A01 T10261026  RH  100%=      5-min Rain = 0
KME1 141036Z 08003KT M03/M03 A3033 RMK A01 T10251025  RH  100%=      5-min Rain = 0
KME1 141037Z 08003KT M03/M03 A3033 RMK A01 T10251025  RH  100%=      5-min Rain = 0
KME1 141038Z 07003KT M03/M03 A3033 RMK A01 T10251025  RH  100%=      5-min Rain = 0
KME1 141039Z 07003KT M02/M02 A3033 RMK A01 T10241024  RH  100%=      5-min Rain = 0
KME1 141040Z 07003KT M02/M02 A3033 RMK A01 T10241024  RH  100%=      5-min Rain = 0
KME1 141041Z 07003KT M02/M02 A3033 RMK A01 T10241024  RH  100%=      5-min Rain = 0
KME1 141042Z 07003KT M02/M02 A3033 RMK A01 T10241024  RH  100%=      5-min Rain = 0
KME1 141043Z 06003KT M02/M02 A3033 RMK A01 T10241024  RH  100%=      5-min Rain = 0
KME1 141044Z 06003KT M02/M02 A3033 RMK A01 T10241024  RH  100%=      5-min Rain = 0
KME1 141045Z 06004KT M02/M02 A3033 RMK A01 T10231023  RH  100%=      5-min Rain = 0
KME1 141046Z 07003KT M02/M02 A3033 RMK A01 T10231023  RH  100%=      5-min Rain = 0
KME1 141047Z 07003KT M02/M02 A3033 RMK A01 T10231023  RH  100%=      5-min Rain = 0
KME1 141048Z 08002KT M02/M02 A3033 RMK A01 T10221022  RH  100%=      5-min Rain = 0
KME1 141049Z 09002KT M02/M02 A3033 RMK A01 T10221022  RH  100%=      5-min Rain = 0
KME1 141050Z 09002KT M02/M02 A3033 RMK A01 T10221022  RH  100%=      5-min Rain = 0
KME1 141051Z 08002KT M02/M02 A3033 RMK A01 T10221022  RH  100%=      5-min Rain = 0
KME1 141052Z 08002KT M02/M02 A3033 RMK A01 T10211022  RH  100%=      5-min Rain = 0
KME1 141053Z 08002KT M02/M02 A3033 RMK A01 T10211021  RH  100%=      5-min Rain = 0
KME1 141054Z 08002KT M02/M02 A3033 RMK A01 T10211021  RH  100%=      5-min Rain = 0
KME1 141055Z 07002KT M02/M02 A3033 RMK A01 T10211021  RH  100%=      5-min Rain = 0
KME1 141056Z 05002KT M02/M02 A3033 RMK A01 T10201020  RH  100%=      5-min Rain = 0
KME1 141057Z 04003KT M02/M02 A3033 RMK A01 T10201020  RH  100%=      5-min Rain = 0
KME1 141058Z 05003KT M02/M02 A3033 RMK A01 T10201020  RH  100%=      5-min Rain = 0
KME1 141059Z 06003KT M02/M02 A3033 RMK A01 T10201020  RH  100%=      5-min Rain = 0
KME1 141100Z 06003KT M02/M02 A3033 RMK A01 T10201020  RH  100%=      5-min Rain = 0
KME1 141101Z 07002KT M02/M02 A3033 RMK A01 T10191019  RH  100%=      5-min Rain = 0
KME1 141102Z 07003KT M02/M02 A3033 RMK A01 T10191019  RH  100%=      5-min Rain = 0
KME1 141103Z 08003KT M02/M02 A3033 RMK A01 T10191019  RH  100%=      5-min Rain = 0
KME1 141104Z 09002KT M02/M02 A3033 RMK A01 T10191019  RH  100%=      5-min Rain = 0
KME1 141105Z 09003KT M02/M02 A3033 RMK A01 T10181019  RH  100%=      5-min Rain = 0
KME1 141106Z 08002KT M02/M02 A3033 RMK A01 T10171018  RH  100%=      5-min Rain = 0
KME1 141107Z 08003KT M02/M02 A3033 RMK A01 T10171017  RH  100%=      5-min Rain = 0
KME1 141108Z 08004KT M02/M02 A3033 RMK A01 T10171017  RH  100%=      5-min Rain = 0
KME1 141109Z 08003KT M02/M02 A3033 RMK A01 T10161017  RH  100%=      5-min Rain = 0
KME1 141110Z 08002KT M02/M02 A3033 RMK A01 T10161016  RH  100%=      5-min Rain = 0
KME1 141111Z 08003KT M02/M02 A3033 RMK A01 T10151015  RH  100%=      5-min Rain = 0
KME1 141112Z 07003KT M02/M02 A3033 RMK A01 T10151015  RH  100%=      5-min Rain = 0
KME1 141113Z 07003KT M02/M02 A3033 RMK A01 T10151016  RH  100%=      5-min Rain = 0
KME1 141114Z 07003KT M02/M02 A3033 RMK A01 T10151015  RH  100%=      5-min Rain = 0
KME1 141115Z 06003KT M02/M02 A3033 RMK A01 T10151015  RH  100%=      5-min Rain = 0
KME1 141116Z 06002KT M02/M02 A3033 RMK A01 T10151015  RH  100%=      5-min Rain = 0
KME1 141117Z 06002KT M01/M01 A3033 RMK A01 T10141014  RH  100%=      5-min Rain = 0
KME1 141118Z 06003KT M01/M01 A3033 RMK A01 T10141014  RH  100%=      5-min Rain = 0
KME1 141119Z 05002KT M01/M01 A3033 RMK A01 T10141014  RH  100%=      5-min Rain = 0
KME1 141120Z 06003KT M01/M01 A3033 RMK A01 T10141014  RH  100%=      5-min Rain = 0
KME1 141121Z 06003KT M01/M01 A3033 RMK A01 T10141014  RH  100%=      5-min Rain = 0
KME1 141122Z 06002KT M01/M01 A3033 RMK A01 T10141014  RH  100%=      5-min Rain = 0
KME1 141123Z 06002KT M01/M01 A3033 RMK A01 T10141014  RH  100%=      5-min Rain = 0
KME1 141124Z 07002KT M01/M01 A3033 RMK A01 T10141014  RH  100%=      5-min Rain = 0
KME1 141125Z 07002KT M01/M01 A3033 RMK A01 T10131013  RH  100%=      5-min Rain = 0
KME1 141126Z 08002KT M01/M01 A3033 RMK A01 T10131013  RH  100%=      5-min Rain = 0
KME1 141127Z 07002KT M01/M01 A3033 RMK A01 T10131013  RH  100%=      5-min Rain = 0
KME1 141128Z 06002KT M01/M01 A3033 RMK A01 T10121013  RH  100%=      5-min Rain = 0
KME1 141129Z 07003KT M01/M01 A3033 RMK A01 T10121012  RH  100%=      5-min Rain = 0
KME1 141130Z 06003KT M01/M01 A3033 RMK A01 T10121012  RH  100%=      5-min Rain = 0
KME1 141131Z 06002KT M01/M01 A3033 RMK A01 T10121012  RH  100%=      5-min Rain = 0
KME1 141132Z 04002KT M01/M01 A3033 RMK A01 T10111011  RH  100%=      5-min Rain = 0
KME1 141133Z 05002KT M01/M01 A3033 RMK A01 T10111011  RH  100%=      5-min Rain = 0
KME1 141134Z 06002KT M01/M01 A3033 RMK A01 T10111011  RH  100%=      5-min Rain = 0
KME1 141135Z 07002KT M01/M01 A3033 RMK A01 T10101010  RH  100%=      5-min Rain = 0
KME1 141136Z 07002KT M01/M01 A3033 RMK A01 T10101011  RH  100%=      5-min Rain = 0
KME1 141137Z 07002KT M01/M01 A3033 RMK A01 T10101010  RH  100%=      5-min Rain = 0
KME1 141138Z 07002KT M01/M01 A3033 RMK A01 T10101010  RH  100%=      5-min Rain = 0
KME1 141139Z 08003KT M01/M01 A3033 RMK A01 T10101010  RH  100%=      5-min Rain = 0
KME1 141140Z 08003KT M01/M01 A3033 RMK A01 T10091009  RH  100%=      5-min Rain = 0
KME1 141141Z 08002KT M01/M01 A3034 RMK A01 T10091009  RH  100%=      5-min Rain = 0
KME1 141142Z 08003KT M01/M01 A3034 RMK A01 T10091009  RH  100%=      5-min Rain = 0
KME1 141143Z 09003KT M01/M01 A3034 RMK A01 T10081008  RH  100%=      5-min Rain = 0
KME1 141144Z 09004KT M01/M01 A3034 RMK A01 T10081008  RH  100%=      5-min Rain = 0
KME1 141145Z 09003KT M01/M01 A3034 RMK A01 T10071007  RH  100%=      5-min Rain = 0
KME1 141146Z 09003KT M01/M01 A3034 RMK A01 T10071007  RH  100%=      5-min Rain = 0
KME1 141147Z 09004KT M01/M01 A3034 RMK A01 T10071007  RH  100%=      5-min Rain = 0
KME1 141148Z 08004KT M01/M01 A3034 RMK A01 T10071007  RH  100%=      5-min Rain = 0
KME1 141149Z 09003KT M01/M01 A3034 RMK A01 T10061006  RH  100%=      5-min Rain = 0
KME1 141150Z 09003KT M01/M01 A3034 RMK A01 T10061006  RH  100%=      5-min Rain = 0
KME1 141151Z 08003KT M01/M01 A3034 RMK A01 T10061006  RH  100%=      5-min Rain = 0
KME1 141152Z 09003KT M01/M01 A3034 RMK A01 T10061006  RH  100%=      5-min Rain = 0
KME1 141153Z 09003KT M01/M01 A3034 RMK A01 T10061006  RH  100%=      5-min Rain = 0
KME1 141154Z 09004KT M01/M01 A3034 RMK A01 T10051006  RH  100%=      5-min Rain = 0
KME1 141155Z 09003KT M01/M01 A3034 RMK A01 T10051005  RH  100%=      5-min Rain = 0
KME1 141156Z 10003KT M01/M01 A3034 RMK A01 T10051005  RH  100%=      5-min Rain = 0
KME1 141157Z 09003KT M01/M01 A3034 RMK A01 T10051005  RH  100%=      5-min Rain = 0
KME1 141158Z 09003KT M01/M01 A3034 RMK A01 T10051005  RH  100%=      5-min Rain = 0
KME1 141159Z 09003KT M01/M01 A3034 RMK A01 T10051005  RH  100%=      5-min Rain = 0
KME1 141200Z 10003KT M01/M01 A3034 RMK A01 T10051005  RH  100%=      5-min Rain = 0
KME1 141201Z 09003KT M01/M01 A3034 RMK A01 T10051005  RH  100%=      5-min Rain = 0
KME1 141202Z 11003KT M00/M00 A3034 RMK A01 T10041004  RH  100%=      5-min Rain = 0
KME1 141203Z 10004KT M00/M01 A3034 RMK A01 T10041005  RH  100%=      5-min Rain = 0
KME1 141204Z 10003KT M01/M01 A3034 RMK A01 T10051005  RH  100%=      5-min Rain = 0
KME1 141205Z 11002KT M00/M00 A3034 RMK A01 T10041004  RH  100%=      5-min Rain = 0
KME1 141206Z 10003KT M00/M00 A3034 RMK A01 T10041004  RH  100%=      5-min Rain = 0
KME1 141207Z 09003KT M00/M00 A3034 RMK A01 T10041004  RH  100%=      5-min Rain = 0
KME1 141208Z 11003KT M00/M00 A3034 RMK A01 T10041004  RH  100%=      5-min Rain = 0
KME1 141209Z 10003KT M00/M00 A3034 RMK A01 T10041004  RH  100%=      5-min Rain = 0
KME1 141210Z 10003KT M00/M00 A3034 RMK A01 T10041004  RH  100%=      5-min Rain = 0
KME1 141211Z 11002KT M00/M00 A3034 RMK A01 T10041004  RH  100%=      5-min Rain = 0
KME1 141212Z 11002KT M00/M00 A3034 RMK A01 T10041004  RH  100%=      5-min Rain = 0
KME1 141213Z 12001KT M00/M00 A3034 RMK A01 T10041004  RH  100%=      5-min Rain = 0
KME1 141214Z 11002KT M00/M00 A3034 RMK A01 T10041004  RH  100%=      5-min Rain = 0
KME1 141215Z 11003KT M01/M01 A3034 RMK A01 T10051005  RH  100%=      5-min Rain = 0
KME1 141216Z 10002KT M00/M00 A3034 RMK A01 T10041004  RH  100%=      5-min Rain = 0
KME1 141217Z 11002KT M01/M01 A3034 RMK A01 T10051005  RH  100%=      5-min Rain = 0
KME1 141218Z 10002KT M01/M01 A3034 RMK A01 T10051005  RH  100%=      5-min Rain = 0
KME1 141219Z 11003KT M01/M01 A3034 RMK A01 T10061006  RH  100%=      5-min Rain = 0
KME1 141220Z 10003KT M01/M01 A3034 RMK A01 T10061006  RH  100%=      5-min Rain = 0
KME1 141221Z 12002KT M01/M01 A3034 RMK A01 T10061007  RH  100%=      5-min Rain = 0
KME1 141222Z 11003KT M01/M01 A3034 RMK A01 T10071007  RH  100%=      5-min Rain = 0
KME1 141223Z 11003KT M01/M01 A3034 RMK A01 T10081008  RH  100%=      5-min Rain = 0
KME1 141224Z 12003KT M01/M01 A3034 RMK A01 T10081008  RH  100%=      5-min Rain = 0
KME1 141225Z 12003KT M01/M01 A3034 RMK A01 T10091009  RH  100%=      5-min Rain = 0
KME1 141226Z 12003KT M01/M01 A3034 RMK A01 T10101010  RH  100%=      5-min Rain = 0
KME1 141227Z 12003KT M01/M01 A3034 RMK A01 T10101011  RH  100%=      5-min Rain = 0
KME1 141228Z 12002KT M01/M01 A3034 RMK A01 T10111011  RH  100%=      5-min Rain = 0
KME1 141229Z 12002KT M01/M01 A3034 RMK A01 T10111011  RH  100%=      5-min Rain = 0
KME1 141230Z 11003KT M01/M01 A3034 RMK A01 T10111012  RH  100%=      5-min Rain = 0
KME1 141231Z 11002KT M01/M01 A3034 RMK A01 T10121012  RH  100%=      5-min Rain = 0
KME1 141232Z 10002KT M01/M01 A3034 RMK A01 T10121012  RH  100%=      5-min Rain = 0
KME1 141233Z 09002KT M01/M01 A3034 RMK A01 T10131013  RH  100%=      5-min Rain = 0
KME1 141234Z 08002KT M01/M01 A3034 RMK A01 T10131013  RH  100%=      5-min Rain = 0
KME1 141235Z 07002KT M01/M01 A3034 RMK A01 T10141014  RH  100%=      5-min Rain = 0
KME1 141236Z 07003KT M02/M02 A3034 RMK A01 T10151015  RH  100%=      5-min Rain = 0
KME1 141237Z 07002KT M02/M02 A3034 RMK A01 T10161016  RH  100%=      5-min Rain = 0
KME1 141238Z 08002KT M02/M02 A3034 RMK A01 T10171017  RH  100%=      5-min Rain = 0
KME1 141239Z 08002KT M02/M02 A3034 RMK A01 T10181018  RH  100%=      5-min Rain = 0
KME1 141240Z 09002KT M02/M02 A3034 RMK A01 T10191019  RH  100%=      5-min Rain = 0
KME1 141241Z 10002KT M02/M02 A3034 RMK A01 T10191019  RH  100%=      5-min Rain = 0
KME1 141242Z 10002KT M02/M02 A3034 RMK A01 T10201020  RH  100%=      5-min Rain = 0
KME1 141243Z 11002KT M02/M02 A3035 RMK A01 T10201020  RH  100%=      5-min Rain = 0
KME1 141244Z 11002KT M02/M02 A3035 RMK A01 T10201020  RH  100%=      5-min Rain = 0
KME1 141245Z 11002KT M02/M02 A3035 RMK A01 T10191019  RH  100%=      5-min Rain = 0
KME1 141246Z 11002KT M02/M02 A3035 RMK A01 T10201020  RH  100%=      5-min Rain = 0
KME1 141247Z 10002KT M02/M02 A3035 RMK A01 T10211021  RH  100%=      5-min Rain = 0
KME1 141248Z 10002KT M02/M02 A3035 RMK A01 T10211021  RH  100%=      5-min Rain = 0
KME1 141249Z 09002KT M02/M02 A3035 RMK A01 T10221022  RH  100%=      5-min Rain = 0
KME1 141250Z 09002KT M02/M02 A3035 RMK A01 T10221022  RH  100%=      5-min Rain = 0
KME1 141251Z 08001KT M02/M02 A3035 RMK A01 T10221022  RH  100%=      5-min Rain = 0
KME1 141252Z 08001KT M02/M02 A3035 RMK A01 T10221022  RH  100%=      5-min Rain = 0
KME1 141253Z 08001KT M02/M02 A3035 RMK A01 T10221022  RH  100%=      5-min Rain = 0
KME1 141254Z 08001KT M02/M02 A3035 RMK A01 T10221022  RH  100%=      5-min Rain = 0
KME1 141255Z 07001KT M02/M02 A3035 RMK A01 T10221022  RH  100%=      5-min Rain = 0
KME1 141256Z 07002KT M02/M02 A3035 RMK A01 T10221022  RH  100%=      5-min Rain = 0
KME1 141257Z 06002KT M02/M02 A3035 RMK A01 T10211021  RH  100%=      5-min Rain = 0
KME1 141258Z 06003KT M02/M02 A3035 RMK A01 T10201020  RH  100%=      5-min Rain = 0
KME1 141259Z 06003KT M02/M02 A3035 RMK A01 T10191019  RH  100%=      5-min Rain = 0
KME1 141300Z 06003KT M02/M02 A3035 RMK A01 T10191019  RH  100%=      5-min Rain = 0
KME1 141301Z 06003KT M02/M02 A3035 RMK A01 T10201021  RH  100%=      5-min Rain = 0
KME1 141302Z 06003KT M02/M02 A3035 RMK A01 T10221022  RH  100%=      5-min Rain = 0
KME1 141303Z 07003KT M02/M02 A3035 RMK A01 T10231023  RH  100%=      5-min Rain = 0
KME1 141304Z 07003KT M02/M02 A3035 RMK A01 T10241024  RH  100%=      5-min Rain = 0
KME1 141305Z 08003KT M03/M03 A3035 RMK A01 T10251025  RH  100%=      5-min Rain = 0
KME1 141306Z 07003KT M03/M03 A3036 RMK A01 T10251025  RH  100%=      5-min Rain = 0
KME1 141307Z 07003KT M03/M03 A3036 RMK A01 T10261026  RH  100%=      5-min Rain = 0
KME1 141308Z 07003KT M03/M03 A3036 RMK A01 T10261026  RH  100%=      5-min Rain = 0
KME1 141309Z 07003KT M03/M03 A3036 RMK A01 T10261026  RH  100%=      5-min Rain = 0
KME1 141310Z 07004KT M03/M03 A3036 RMK A01 T10261027  RH  100%=      5-min Rain = 0
KME1 141311Z 06004KT M03/M03 A3036 RMK A01 T10271027  RH  100%=      5-min Rain = 0
KME1 141312Z 06004KT M03/M03 A3036 RMK A01 T10271027  RH  100%=      5-min Rain = 0
KME1 141313Z 07004KT M03/M03 A3036 RMK A01 T10281028  RH  100%=      5-min Rain = 0
KME1 141314Z 07004KT M03/M03 A3036 RMK A01 T10281028  RH  100%=      5-min Rain = 0
KME1 141315Z 07004KT M03/M03 A3036 RMK A01 T10281028  RH  100%=      5-min Rain = 0
KME1 141316Z 07004KT M03/M03 A3036 RMK A01 T10281029  RH  100%=      5-min Rain = 0
KME1 141317Z 08003KT M03/M03 A3036 RMK A01 T10281028  RH  100%=      5-min Rain = 0
KME1 141318Z 08003KT M03/M03 A3036 RMK A01 T10281028  RH  100%=      5-min Rain = 0
KME1 141319Z 08003KT M03/M03 A3036 RMK A01 T10281028  RH  100%=      5-min Rain = 0
KME1 141320Z 08003KT M03/M03 A3036 RMK A01 T10281028  RH  100%=      5-min Rain = 0
KME1 141321Z 07002KT M03/M03 A3036 RMK A01 T10281028  RH  100%=      5-min Rain = 0
KME1 141322Z 07002KT M03/M03 A3036 RMK A01 T10281028  RH  100%=      5-min Rain = 0
KME1 141323Z 07002KT M03/M03 A3036 RMK A01 T10281028  RH  100%=      5-min Rain = 0
KME1 141324Z 07003KT M03/M03 A3036 RMK A01 T10281028  RH  100%=      5-min Rain = 0
KME1 141325Z 06003KT M03/M03 A3036 RMK A01 T10281028  RH  100%=      5-min Rain = 0
KME1 141326Z 05003KT M03/M03 A3036 RMK A01 T10271028  RH  100%=      5-min Rain = 0
KME1 141327Z 05003KT M03/M03 A3036 RMK A01 T10261027  RH  100%=      5-min Rain = 0
KME1 141328Z 05003KT M03/M03 A3036 RMK A01 T10261026  RH  100%=      5-min Rain = 0
KME1 141329Z 05003KT M03/M03 A3036 RMK A01 T10271027  RH  100%=      5-min Rain = 0
KME1 141330Z 06003KT M03/M03 A3036 RMK A01 T10281028  RH  100%=      5-min Rain = 0
KME1 141331Z 05003KT M03/M03 A3036 RMK A01 T10281028  RH  100%=      5-min Rain = 0
KME1 141332Z 05003KT M03/M03 A3036 RMK A01 T10291029  RH  100%=      5-min Rain = 0
KME1 141333Z 05003KT M03/M03 A3036 RMK A01 T10291029  RH  100%=      5-min Rain = 0
KME1 141334Z 05003KT M03/M03 A3036 RMK A01 T10291029  RH  100%=      5-min Rain = 0
KME1 141335Z 05003KT M03/M03 A3036 RMK A01 T10291029  RH  100%=      5-min Rain = 0
KME1 141336Z 05003KT M03/M03 A3036 RMK A01 T10291030  RH  100%=      5-min Rain = 0
KME1 141337Z 05003KT M03/M03 A3036 RMK A01 T10301030  RH  100%=      5-min Rain = 0
KME1 141338Z 05004KT M03/M03 A3036 RMK A01 T10301030  RH  100%=      5-min Rain = 0
KME1 141339Z 06003KT M03/M03 A3036 RMK A01 T10291030  RH  100%=      5-min Rain = 0
KME1 141340Z 06003KT M03/M03 A3036 RMK A01 T10291029  RH  100%=      5-min Rain = 0
KME1 141341Z 06003KT M03/M03 A3036 RMK A01 T10291029  RH  100%=      5-min Rain = 0
KME1 141342Z 06003KT M03/M03 A3036 RMK A01 T10291029  RH  100%=      5-min Rain = 0
KME1 141343Z 06003KT M03/M03 A3037 RMK A01 T10291029  RH  100%=      5-min Rain = 0
KME1 141344Z 06003KT M03/M03 A3037 RMK A01 T10291029  RH  100%=      5-min Rain = 0
KME1 141345Z 06003KT M03/M03 A3037 RMK A01 T10291029  RH  100%=      5-min Rain = 0
KME1 141346Z 06003KT M03/M03 A3037 RMK A01 T10291029  RH  100%=      5-min Rain = 0
KME1 141347Z 05003KT M03/M03 A3037 RMK A01 T10291029  RH  100%=      5-min Rain = 0
KME1 141348Z 05003KT M03/M03 A3037 RMK A01 T10291029  RH  100%=      5-min Rain = 0
KME1 141349Z 05003KT M03/M03 A3037 RMK A01 T10281029  RH  100%=      5-min Rain = 0
KME1 141350Z 05003KT M03/M03 A3037 RMK A01 T10281028  RH  100%=      5-min Rain = 0
KME1 141351Z 05003KT M03/M03 A3037 RMK A01 T10281028  RH  100%=      5-min Rain = 0
KME1 141352Z 05004KT M03/M03 A3037 RMK A01 T10271028  RH  100%=      5-min Rain = 0
KME1 141353Z 05004KT M03/M03 A3037 RMK A01 T10271027  RH  100%=      5-min Rain = 0
KME1 141354Z 05003KT M03/M03 A3037 RMK A01 T10271027  RH  100%=      5-min Rain = 0
KME1 141355Z 06003KT M03/M03 A3037 RMK A01 T10261026  RH  100%=      5-min Rain = 0
KME1 141356Z 07003KT M03/M03 A3037 RMK A01 T10251025  RH  100%=      5-min Rain = 0
KME1 141357Z 08003KT M03/M03 A3037 RMK A01 T10251025  RH  100%=      5-min Rain = 0
KME1 141358Z 09002KT M02/M02 A3037 RMK A01 T10241024  RH  100%=      5-min Rain = 0
KME1 141359Z 08003KT M02/M02 A3037 RMK A01 T10241024  RH  100%=      5-min Rain = 0
KME1 141400Z 08003KT M02/M02 A3037 RMK A01 T10241024  RH  100%=      5-min Rain = 0
KME1 141401Z 08003KT M02/M02 A3037 RMK A01 T10231023  RH  100%=      5-min Rain = 0
KME1 141402Z 09003KT M02/M02 A3037 RMK A01 T10231023  RH  100%=      5-min Rain = 0
KME1 141403Z 08004KT M02/M02 A3037 RMK A01 T10221022  RH  100%=      5-min Rain = 0
KME1 141404Z 09003KT M02/M02 A3037 RMK A01 T10211021  RH  100%=      5-min Rain = 0
KME1 141405Z 08003KT M02/M02 A3037 RMK A01 T10201020  RH  100%=      5-min Rain = 0
KME1 141406Z 08004KT M02/M02 A3037 RMK A01 T10191019  RH  100%=      5-min Rain = 0
KME1 141407Z 08005KT M02/M02 A3037 RMK A01 T10181018  RH  100%=      5-min Rain = 0
KME1 141408Z 08005KT M02/M02 A3037 RMK A01 T10171017  RH  100%=      5-min Rain = 0
KME1 141409Z 08004KT M02/M02 A3037 RMK A01 T10161017  RH  100%=      5-min Rain = 0
KME1 141410Z 08004KT M02/M02 A3037 RMK A01 T10161016  RH  100%=      5-min Rain = 0
KME1 141411Z 08004KT M02/M02 A3037 RMK A01 T10151016  RH  100%=      5-min Rain = 0
KME1 141412Z 08005KT M02/M02 A3037 RMK A01 T10151015  RH  100%=      5-min Rain = 0
KME1 141413Z 08003KT M02/M02 A3037 RMK A01 T10151015  RH  100%=      5-min Rain = 0
KME1 141414Z 08004KT M01/M01 A3037 RMK A01 T10141014  RH  100%=      5-min Rain = 0
KME1 141415Z 08004KT M01/M01 A3037 RMK A01 T10131014  RH  100%=      5-min Rain = 0
KME1 141416Z 08004KT M01/M01 A3037 RMK A01 T10131013  RH  100%=      5-min Rain = 0
KME1 141417Z 09004KT M01/M01 A3037 RMK A01 T10121012  RH  100%=      5-min Rain = 0
KME1 141418Z 09005KT M01/M01 A3037 RMK A01 T10111011  RH  100%=      5-min Rain = 0
KME1 141419Z 09005KT M01/M01 A3037 RMK A01 T10111011  RH  100%=      5-min Rain = 0
KME1 141420Z 09005KT M01/M01 A3037 RMK A01 T10111011  RH  100%=      5-min Rain = 0
KME1 141421Z 09005KT M01/M01 A3037 RMK A01 T10111011  RH  100%=      5-min Rain = 0
KME1 141422Z 09006KT M01/M01 A3037 RMK A01 T10111011  RH  100%=      5-min Rain = 0
KME1 141423Z 09004KT M01/M01 A3037 RMK A01 T10111011  RH  100%=      5-min Rain = 0
KME1 141424Z 08004KT M01/M01 A3038 RMK A01 T10101010  RH  100%=      5-min Rain = 0
KME1 141425Z 08004KT M01/M01 A3038 RMK A01 T10101010  RH  100%=      5-min Rain = 0
KME1 141426Z 08005KT M01/M01 A3038 RMK A01 T10101010  RH  100%=      5-min Rain = 0
KME1 141427Z 09005KT M01/M01 A3038 RMK A01 T10091009  RH  100%=      5-min Rain = 0
KME1 141428Z 09005KT M01/M01 A3038 RMK A01 T10091009  RH  100%=      5-min Rain = 0
KME1 141429Z 10003KT M01/M01 A3038 RMK A01 T10091009  RH  100%=      5-min Rain = 0
KME1 141430Z 09003KT M01/M01 A3038 RMK A01 T10081009  RH  100%=      5-min Rain = 0
KME1 141431Z 09003KT M01/M01 A3038 RMK A01 T10081008  RH  100%=      5-min Rain = 0
KME1 141432Z 09004KT M01/M01 A3038 RMK A01 T10081008  RH  100%=      5-min Rain = 0
KME1 141433Z 09005KT M01/M01 A3038 RMK A01 T10071007  RH  100%=      5-min Rain = 0
KME1 141434Z 10004KT M01/M01 A3038 RMK A01 T10071007  RH  100%=      5-min Rain = 0
KME1 141435Z 10004KT M01/M01 A3038 RMK A01 T10071007  RH  100%=      5-min Rain = 0
KME1 141436Z 09004KT M01/M01 A3038 RMK A01 T10071007  RH  100%=      5-min Rain = 0
KME1 141437Z 09003KT M01/M01 A3038 RMK A01 T10071007  RH  100%=      5-min Rain = 0
KME1 141438Z 11002KT M01/M01 A3038 RMK A01 T10071007  RH  100%=      5-min Rain = 0
KME1 141439Z 11003KT M01/M01 A3038 RMK A01 T10061006  RH  100%=      5-min Rain = 0
KME1 141440Z 10004KT M01/M01 A3038 RMK A01 T10061006  RH  100%=      5-min Rain = 0
KME1 141441Z 10004KT M01/M01 A3038 RMK A01 T10061006  RH  100%=      5-min Rain = 0
KME1 141442Z 11003KT M01/M01 A3038 RMK A01 T10051005  RH  100%=      5-min Rain = 0
KME1 141443Z 13004KT M01/M01 A3038 RMK A01 T10051005  RH  100%=      5-min Rain = 0
KME1 141444Z 14004KT M00/M00 A3038 RMK A01 T10041004  RH  100%=      5-min Rain = 0
KME1 141445Z 15004KT M00/M00 A3038 RMK A01 T10041004  RH  100%=      5-min Rain = 0
KME1 141446Z 16004KT M00/M00 A3038 RMK A01 T10041004  RH  100%=      5-min Rain = 0
KME1 141447Z 15005KT M00/M00 A3038 RMK A01 T10041004  RH  100%=      5-min Rain = 0
KME1 141448Z 14006KT M00/M00 A3038 RMK A01 T10041004  RH  100%=      5-min Rain = 0
KME1 141449Z 13005KT M00/M00 A3038 RMK A01 T10031003  RH  100%=      5-min Rain = 0
KME1 141450Z 12006KT M00/M00 A3038 RMK A01 T10031003  RH  100%=      5-min Rain = 0
KME1 141451Z 13005KT M00/M00 A3038 RMK A01 T10021002  RH  100%=      5-min Rain = 0
KME1 141452Z 14004KT M00/M00 A3038 RMK A01 T10021002  RH  100%=      5-min Rain = 0
KME1 141453Z 15004KT M00/M00 A3038 RMK A01 T10021002  RH  100%=      5-min Rain = 0
KME1 141454Z 15005KT M00/M00 A3039 RMK A01 T10021002  RH  100%=      5-min Rain = 0
KME1 141455Z 13004KT M00/M00 A3039 RMK A01 T10021002  RH  100%=      5-min Rain = 0
KME1 141456Z 12004KT M00/M00 A3039 RMK A01 T10011002  RH  100%=      5-min Rain = 0
KME1 141457Z 14005KT M00/M00 A3039 RMK A01 T10011001  RH  100%=      5-min Rain = 0
KME1 141458Z 17005KT M00/M00 A3039 RMK A01 T10011001  RH  100%=      5-min Rain = 0
KME1 141459Z 17005KT 00/00 A3039 RMK A01 T00-000-0  RH  100%=      5-min Rain = 0
KME1 141500Z 18005KT 00/00 A3039 RMK A01 T00-000-0  RH  100%=      5-min Rain = 0
KME1 141501Z 18004KT 00/00 A3039 RMK A01 T00-000-0  RH  100%=      5-min Rain = 0
KME1 141502Z 18004KT 00/00 A3039 RMK A01 T00-000-0  RH  100%=      5-min Rain = 0
KME1 141503Z 18004KT 00/00 A3039 RMK A01 T00000000  RH  100%=      5-min Rain = 0
KME1 141504Z 17005KT 00/00 A3039 RMK A01 T00010001  RH  100%=      5-min Rain = 0
KME1 141505Z 16005KT 00/00 A3039 RMK A01 T00020001  RH  100%=      5-min Rain = 0
KME1 141506Z 15005KT 00/00 A3039 RMK A01 T00010001  RH  100%=      5-min Rain = 0
KME1 141507Z 15004KT 00/M00 A3039 RMK A01 T00011001  RH  099%=      5-min Rain = 0
KME1 141508Z 15004KT 00/M00 A3039 RMK A01 T00011002  RH  098%=      5-min Rain = 0
KME1 141509Z 15004KT 00/M00 A3039 RMK A01 T00021001  RH  098%=      5-min Rain = 0
KME1 141510Z 14003KT 00/00 A3039 RMK A01 T00030003  RH  100%=      5-min Rain = 0
KME1 141511Z 14006KT 01/00 A3039 RMK A01 T00050004  RH  099%=      5-min Rain = 0
KME1 141512Z 14004KT 01/00 A3039 RMK A01 T000500-0  RH  097%=      5-min Rain = 0
KME1 141513Z 14005KT 01/00 A3039 RMK A01 T000500-0  RH  096%=      5-min Rain = 0
KME1 141514Z 14004KT 01/M00 A3039 RMK A01 T00051001  RH  096%=      5-min Rain = 0
KME1 141515Z 16003KT 01/M00 A3039 RMK A01 T00051004  RH  094%=      5-min Rain = 0
KME1 141516Z 16005KT 01/M00 A3039 RMK A01 T00051003  RH  094%=      5-min Rain = 0
KME1 141517Z 16005KT 01/M01 A3039 RMK A01 T00051005  RH  093%=      5-min Rain = 0
KME1 141518Z 15004KT 01/M01 A3038 RMK A01 T00051006  RH  093%=      5-min Rain = 0
KME1 141519Z 15007KT 01/M00 A3039 RMK A01 T00061004  RH  093%=      5-min Rain = 0
KME1 141520Z 15007KT 01/M01 A3038 RMK A01 T00061007  RH  091%=      5-min Rain = 0
KME1 141521Z 16006KT 01/M01 A3038 RMK A01 T00061009  RH  090%=      5-min Rain = 0
KME1 141522Z 18005KT 01/M01 A3038 RMK A01 T00071008  RH  090%=      5-min Rain = 0
KME1 141523Z 18005KT 01/M01 A3038 RMK A01 T00081010  RH  088%=      5-min Rain = 0
KME1 141524Z 17005KT 01/M01 A3038 RMK A01 T00071012  RH  087%=      5-min Rain = 0
KME1 141525Z 17005KT 01/M01 A3038 RMK A01 T00061013  RH  087%=      5-min Rain = 0
KME1 141526Z 19006KT 01/M01 A3038 RMK A01 T00061013  RH  087%=      5-min Rain = 0
KME1 141527Z 18005KT 01/M01 A3038 RMK A01 T00061013  RH  087%=      5-min Rain = 0
KME1 141528Z 16002KT 01/M01 A3038 RMK A01 T00061012  RH  088%=      5-min Rain = 0
KME1 141529Z 15003KT 01/M01 A3038 RMK A01 T00071010  RH  089%=      5-min Rain = 0
KME1 141530Z 13004KT 01/M01 A3038 RMK A01 T00071010  RH  088%=      5-min Rain = 0
KME1 141531Z 14004KT 01/M01 A3038 RMK A01 T00081010  RH  088%=      5-min Rain = 0
KME1 141532Z 15006KT 01/M01 A3038 RMK A01 T00091008  RH  088%=      5-min Rain = 0
KME1 141533Z 16005KT 01/M01 A3038 RMK A01 T00091011  RH  086%=      5-min Rain = 0
KME1 141534Z 15006KT 01/M01 A3038 RMK A01 T00091012  RH  086%=      5-min Rain = 0
KME1 141535Z 15005KT 01/M01 A3038 RMK A01 T00091013  RH  086%=      5-min Rain = 0
KME1 141536Z 15005KT 01/M01 A3038 RMK A01 T00091011  RH  087%=      5-min Rain = 0
KME1 141537Z 17006KT 01/M01 A3038 RMK A01 T00101009  RH  087%=      5-min Rain = 0
KME1 141538Z 15007KT 01/M01 A3038 RMK A01 T00121008  RH  086%=      5-min Rain = 0
KME1 141539Z 16007KT 01/M01 A3038 RMK A01 T00131008  RH  086%=      5-min Rain = 0
KME1 141540Z 15004KT 01/M01 A3038 RMK A01 T00141009  RH  085%=      5-min Rain = 0
KME1 141541Z 14005KT 01/M01 A3038 RMK A01 T00141009  RH  084%=      5-min Rain = 0
KME1 141542Z 15004KT 02/M01 A3038 RMK A01 T00151009  RH  084%=      5-min Rain = 0
KME1 141543Z 15004KT 02/M01 A3038 RMK A01 T00181007  RH  084%=      5-min Rain = 0
KME1 141544Z 16005KT 02/M01 A3038 RMK A01 T00201009  RH  081%=      5-min Rain = 0
KME1 141545Z 18005KT 02/M01 A3038 RMK A01 T00221007  RH  081%=      5-min Rain = 0
KME1 141546Z 19004KT 02/M01 A3039 RMK A01 T00241010  RH  079%=      5-min Rain = 0
KME1 141547Z 19004KT 02/M01 A3039 RMK A01 T00241011  RH  078%=      5-min Rain = 0
KME1 141548Z 19005KT 03/M01 A3039 RMK A01 T00251008  RH  078%=      5-min Rain = 0
KME1 141549Z 19006KT 03/M01 A3039 RMK A01 T00281007  RH  077%=      5-min Rain = 0
KME1 141550Z 20006KT 03/M01 A3039 RMK A01 T00281011  RH  075%=      5-min Rain = 0
KME1 141551Z 20006KT 03/M01 A3039 RMK A01 T00251013  RH  076%=      5-min Rain = 0
KME1 141552Z 19005KT 03/M01 A3039 RMK A01 T00251013  RH  076%=      5-min Rain = 0
KME1 141553Z 19005KT 02/M02 A3039 RMK A01 T00221016  RH  076%=      5-min Rain = 0
KME1 141554Z 20005KT 02/M02 A3039 RMK A01 T00201016  RH  077%=      5-min Rain = 0
KME1 141555Z 19005KT 02/M01 A3039 RMK A01 T00201014  RH  078%=      5-min Rain = 0
KME1 141556Z 19004KT 02/M01 A3039 RMK A01 T00211013  RH  078%=      5-min Rain = 0
KME1 141557Z 20003KT 02/M01 A3039 RMK A01 T00221013  RH  078%=      5-min Rain = 0
KME1 141558Z 20003KT 02/M01 A3039 RMK A01 T00231013  RH  077%=      5-min Rain = 0
KME1 141559Z 20004KT 02/M01 A3039 RMK A01 T00221014  RH  077%=      5-min Rain = 0
KME1 141600Z 20003KT 02/M01 A3039 RMK A01 T00231013  RH  077%=      5-min Rain = 0
KME1 141601Z 18003KT 02/M01 A3039 RMK A01 T00241011  RH  077%=      5-min Rain = 0
KME1 141602Z 19003KT 03/M01 A3039 RMK A01 T00261011  RH  077%=      5-min Rain = 0
KME1 141603Z 19003KT 03/M01 A3039 RMK A01 T00261012  RH  076%=      5-min Rain = 0
KME1 141604Z 17002KT 03/M01 A3038 RMK A01 T00271011  RH  076%=      5-min Rain = 0
KME1 141605Z 24001KT 03/M01 A3038 RMK A01 T00291011  RH  075%=      5-min Rain = 0
KME1 141606Z 23003KT 03/M01 A3038 RMK A01 T00301011  RH  074%=      5-min Rain = 0
KME1 141607Z 20006KT 03/M01 A3038 RMK A01 T00331008  RH  075%=      5-min Rain = 0
KME1 141608Z 18005KT 04/M01 A3038 RMK A01 T00361007  RH  073%=      5-min Rain = 0
KME1 141609Z 19006KT 04/M01 A3038 RMK A01 T00381009  RH  071%=      5-min Rain = 0
KME1 141610Z 19005KT 04/M01 A3038 RMK A01 T00381012  RH  070%=      5-min Rain = 0
KME1 141611Z 17005KT 04/M01 A3038 RMK A01 T00371013  RH  070%=      5-min Rain = 0
KME1 141612Z 18005KT 04/M01 A3038 RMK A01 T00381012  RH  070%=      5-min Rain = 0
KME1 141613Z 19003KT 04/M01 A3038 RMK A01 T00381014  RH  069%=      5-min Rain = 0
KME1 141614Z 17003KT 04/M01 A3038 RMK A01 T00371014  RH  070%=      5-min Rain = 0
KME1 141615Z 16002KT 04/M01 A3038 RMK A01 T00381014  RH  069%=      5-min Rain = 0
KME1 141616Z 17002KT 04/M02 A3038 RMK A01 T00371015  RH  069%=      5-min Rain = 0
KME1 141617Z 17004KT 04/M01 A3038 RMK A01 T00391012  RH  069%=      5-min Rain = 0
KME1 141618Z 17006KT 04/M01 A3038 RMK A01 T00421011  RH  069%=      5-min Rain = 0
KME1 141619Z 16005KT 04/M01 A3038 RMK A01 T00441011  RH  067%=      5-min Rain = 0
KME1 141620Z 16004KT 04/M01 A3038 RMK A01 T00441013  RH  067%=      5-min Rain = 0
KME1 141621Z 14005KT 04/M01 A3038 RMK A01 T00421014  RH  067%=      5-min Rain = 0
KME1 141622Z 10001KT 04/M01 A3038 RMK A01 T00421012  RH  068%=      5-min Rain = 0
KME1 141623Z 13003KT 04/M01 A3038 RMK A01 T00421014  RH  067%=      5-min Rain = 0
KME1 141624Z 16004KT 04/M01 A3038 RMK A01 T00431013  RH  067%=      5-min Rain = 0
KME1 141625Z 17004KT 04/M01 A3038 RMK A01 T00431014  RH  066%=      5-min Rain = 0
KME1 141626Z 16003KT 04/M01 A3038 RMK A01 T00431012  RH  067%=      5-min Rain = 0
KME1 141627Z 20006KT 05/M01 A3038 RMK A01 T00451009  RH  068%=      5-min Rain = 0
KME1 141628Z 20006KT 05/M01 A3038 RMK A01 T00481009  RH  067%=      5-min Rain = 0
KME1 141629Z 21005KT 05/M01 A3038 RMK A01 T00491010  RH  065%=      5-min Rain = 0
KME1 141630Z 18005KT 05/M01 A3038 RMK A01 T00491012  RH  064%=      5-min Rain = 0
KME1 141631Z 18004KT 05/M01 A3038 RMK A01 T00491012  RH  065%=      5-min Rain = 0
KME1 141632Z 18004KT 05/M01 A3038 RMK A01 T00511010  RH  065%=      5-min Rain = 0
KME1 141633Z 19004KT 05/M01 A3038 RMK A01 T00531011  RH  064%=      5-min Rain = 0
KME1 141634Z 17006G11KT 06/M01 A3038 RMK A01 T00551010  RH  063%=      5-min Rain = 0
KME1 141635Z 17008KT 06/M01 A3038 RMK A01 T00571012  RH  061%=      5-min Rain = 0
KME1 141636Z 16005KT 06/M02 A3038 RMK A01 T00551016  RH  060%=      5-min Rain = 0
KME1 141637Z 18007KT 05/M02 A3037 RMK A01 T00531016  RH  061%=      5-min Rain = 0
KME1 141638Z 16006KT 05/M02 A3037 RMK A01 T00531015  RH  061%=      5-min Rain = 0
KME1 141639Z 18005KT 05/M01 A3037 RMK A01 T00531014  RH  062%=      5-min Rain = 0
KME1 141640Z 17004KT 05/M01 A3037 RMK A01 T00541014  RH  062%=      5-min Rain = 0
KME1 141641Z 15005KT 06/M01 A3037 RMK A01 T00561012  RH  062%=      5-min Rain = 0
KME1 141642Z 15006KT 06/M01 A3037 RMK A01 T00571013  RH  061%=      5-min Rain = 0
KME1 141643Z 15007KT 06/M02 A3037 RMK A01 T00581015  RH  060%=      5-min Rain = 0
KME1 141644Z 14009KT 06/M02 A3037 RMK A01 T00591015  RH  059%=      5-min Rain = 0
KME1 141645Z 14008KT 06/M02 A3037 RMK A01 T00591017  RH  058%=      5-min Rain = 0
KME1 141646Z 16005KT 06/M02 A3037 RMK A01 T00571017  RH  059%=      5-min Rain = 0
KME1 141647Z 18005KT 06/M01 A3037 RMK A01 T00571014  RH  060%=      5-min Rain = 0
KME1 141648Z 18003KT 06/M02 A3037 RMK A01 T00581016  RH  059%=      5-min Rain = 0
KME1 141649Z 17005KT 06/M02 A3037 RMK A01 T00581015  RH  059%=      5-min Rain = 0
KME1 141650Z 19003KT 06/M01 A3037 RMK A01 T00601014  RH  059%=      5-min Rain = 0
KME1 141651Z 19003KT 06/M01 A3037 RMK A01 T00621013  RH  059%=      5-min Rain = 0
KME1 141652Z 15003KT 06/M01 A3037 RMK A01 T00641014  RH  057%=      5-min Rain = 0
KME1 141653Z 18007KT 07/M01 A3037 RMK A01 T00661012  RH  057%=      5-min Rain = 0
KME1 141654Z 16007KT 07/M01 A3037 RMK A01 T00671014  RH  056%=      5-min Rain = 0
KME1 141655Z 16007KT 07/M02 A3037 RMK A01 T00671016  RH  056%=      5-min Rain = 0
KME1 141656Z 17006KT 07/M02 A3037 RMK A01 T00651017  RH  056%=      5-min Rain = 0
KME1 141657Z 16006KT 07/M02 A3037 RMK A01 T00651017  RH  056%=      5-min Rain = 0
KME1 141658Z 14007KT 07/M02 A3037 RMK A01 T00661015  RH  056%=      5-min Rain = 0
KME1 141659Z 15005KT 07/M02 A3037 RMK A01 T00681016  RH  055%=      5-min Rain = 0
KME1 141700Z 17003KT 07/M02 A3037 RMK A01 T00681017  RH  055%=      5-min Rain = 0
KME1 141701Z 19004KT 07/M01 A3037 RMK A01 T00701014  RH  055%=      5-min Rain = 0
KME1 141702Z 19007KT 07/M01 A3037 RMK A01 T00721012  RH  055%=      5-min Rain = 0
KME1 141703Z 19006KT 07/M01 A3037 RMK A01 T00741014  RH  054%=      5-min Rain = 0
KME1 141704Z 20006KT 07/M01 A3037 RMK A01 T00741014  RH  054%=      5-min Rain = 0
KME1 141705Z 20006KT 07/M01 A3037 RMK A01 T00731013  RH  054%=      5-min Rain = 0
KME1 141706Z 20006KT 07/M01 A3037 RMK A01 T00731013  RH  054%=      5-min Rain = 0
KME1 141707Z 18007KT 07/M01 A3037 RMK A01 T00731014  RH  054%=      5-min Rain = 0
KME1 141708Z 16007KT 07/M01 A3037 RMK A01 T00741014  RH  054%=      5-min Rain = 0
KME1 141709Z 13006KT 08/M01 A3037 RMK A01 T00761014  RH  053%=      5-min Rain = 0
KME1 141710Z 14006KT 08/M02 A3037 RMK A01 T00771016  RH  052%=      5-min Rain = 0
KME1 141711Z 17005G10KT 08/M02 A3037 RMK A01 T00761015  RH  052%=      5-min Rain = 0
KME1 141712Z 17007KT 08/M02 A3037 RMK A01 T00771015  RH  052%=      5-min Rain = 0
KME1 141713Z 17005KT 08/M02 A3036 RMK A01 T00771016  RH  052%=      5-min Rain = 0
KME1 141714Z 15008KT 08/M02 A3037 RMK A01 T00761017  RH  052%=      5-min Rain = 0
KME1 141715Z 14008KT 08/M02 A3037 RMK A01 T00761019  RH  051%=      5-min Rain = 0
KME1 141716Z 16009KT 08/M02 A3036 RMK A01 T00771019  RH  051%=      5-min Rain = 0
KME1 141717Z 15012KT 08/M02 A3036 RMK A01 T00781018  RH  051%=      5-min Rain = 0
KME1 141718Z 16011KT 08/M02 A3036 RMK A01 T00791017  RH  050%=      5-min Rain = 0
KME1 141719Z 15008KT 08/M02 A3036 RMK A01 T00801018  RH  050%=      5-min Rain = 0
KME1 141720Z 15007KT 08/M02 A3036 RMK A01 T00811018  RH  050%=      5-min Rain = 0
KME1 141721Z 15009KT 08/M02 A3036 RMK A01 T00831017  RH  050%=      5-min Rain = 0
KME1 141722Z 14010G15KT 08/M02 A3036 RMK A01 T00831020  RH  048%=      5-min Rain = 0
KME1 141723Z 15011KT 08/M02 A3036 RMK A01 T00821019  RH  049%=      5-min Rain = 0
KME1 141724Z 14008KT 08/M02 A3036 RMK A01 T00831018  RH  049%=      5-min Rain = 0
KME1 141725Z 15008KT 09/M02 A3036 RMK A01 T00851016  RH  049%=      5-min Rain = 0
KME1 141726Z 16007KT 09/M02 A3036 RMK A01 T00891015  RH  048%=      5-min Rain = 0
KME1 141727Z 14011KT 09/M02 A3036 RMK A01 T00911017  RH  047%=      5-min Rain = 0
KME1 141728Z 18008KT 09/M02 A3036 RMK A01 T00901017  RH  047%=      5-min Rain = 0
KME1 141729Z 16011KT 09/M02 A3036 RMK A01 T00911016  RH  047%=      5-min Rain = 0
KME1 141730Z 15011KT 09/M02 A3036 RMK A01 T00911017  RH  047%=      5-min Rain = 0
KME1 141731Z 16010KT 09/M02 A3036 RMK A01 T00901017  RH  047%=      5-min Rain = 0
KME1 141732Z 16011KT 09/M02 A3036 RMK A01 T00901016  RH  047%=      5-min Rain = 0
KME1 141733Z 17009KT 09/M02 A3035 RMK A01 T00891020  RH  046%=      5-min Rain = 0
KME1 141734Z 16009KT 09/M02 A3035 RMK A01 T00871020  RH  047%=      5-min Rain = 0
KME1 141735Z 16009KT 09/M02 A3035 RMK A01 T00881018  RH  047%=      5-min Rain = 0
KME1 141736Z 14012KT 09/M02 A3035 RMK A01 T00901017  RH  047%=      5-min Rain = 0
KME1 141737Z 14010KT 09/M02 A3035 RMK A01 T00901018  RH  047%=      5-min Rain = 0
KME1 141738Z 14009KT 09/M02 A3035 RMK A01 T00901018  RH  047%=      5-min Rain = 0
KME1 141739Z 15008KT 09/M02 A3035 RMK A01 T00901018  RH  047%=      5-min Rain = 0
KME1 141740Z 15009G14KT 09/M02 A3035 RMK A01 T00911017  RH  047%=      5-min Rain = 0
KME1 141741Z 14010KT 09/M02 A3035 RMK A01 T00921019  RH  046%=      5-min Rain = 0
KME1 141742Z 13008KT 09/M02 A3035 RMK A01 T00911020  RH  046%=      5-min Rain = 0
KME1 141743Z 16008KT 09/M02 A3035 RMK A01 T00901020  RH  046%=      5-min Rain = 0
KME1 141744Z 15010KT 09/M02 A3035 RMK A01 T00921017  RH  046%=      5-min Rain = 0
KME1 141745Z 15010KT 10/M02 A3035 RMK A01 T00951015  RH  046%=      5-min Rain = 0
KME1 141746Z 16006KT 10/M02 A3035 RMK A01 T00951018  RH  045%=      5-min Rain = 0
KME1 141747Z 16006KT 09/M02 A3035 RMK A01 T00941019  RH  045%=      5-min Rain = 0
KME1 141748Z 15009G14KT 10/M01 A3034 RMK A01 T00961014  RH  046%=      5-min Rain = 0
KME1 141749Z 16010G15KT 10/M01 A3034 RMK A01 T00991013  RH  046%=      5-min Rain = 0
KME1 141750Z 16007KT 10/M01 A3034 RMK A01 T00991013  RH  046%=      5-min Rain = 0
KME1 141751Z 16009KT 10/M02 A3034 RMK A01 T00991015  RH  045%=      5-min Rain = 0
KME1 141752Z 16013KT 10/M02 A3034 RMK A01 T00971016  RH  045%=      5-min Rain = 0
KME1 141753Z 17011KT 10/M01 A3034 RMK A01 T00981013  RH  046%=      5-min Rain = 0
KME1 141754Z 17009KT 10/M02 A3034 RMK A01 T00991015  RH  045%=      5-min Rain = 0
KME1 141755Z 19007KT 10/M02 A3034 RMK A01 T00981017  RH  045%=      5-min Rain = 0
KME1 141756Z 18007KT 10/M02 A3034 RMK A01 T00971016  RH  045%=      5-min Rain = 0
KME1 141757Z 17010KT 10/M02 A3034 RMK A01 T00981015  RH  045%=      5-min Rain = 0
KME1 141758Z 17013KT 10/M01 A3034 RMK A01 T01011012  RH  045%=      5-min Rain = 0
KME1 141759Z 18012KT 10/M01 A3034 RMK A01 T01011013  RH  045%=      5-min Rain = 0
KME1 141800Z 18010KT 10/M01 A3034 RMK A01 T01011013  RH  045%=      5-min Rain = 0
KME1 141801Z 18008KT 10/M01 A3034 RMK A01 T01011013  RH  045%=      5-min Rain = 0
KME1 141802Z 17008KT 10/M01 A3034 RMK A01 T01011014  RH  044%=      5-min Rain = 0
KME1 141803Z 15006KT 10/M01 A3034 RMK A01 T01021011  RH  045%=      5-min Rain = 0
KME1 141804Z 15007KT 11/M01 A3034 RMK A01 T01061010  RH  045%=      5-min Rain = 0
KME1 141805Z 17008KT 11/M01 A3033 RMK A01 T01071010  RH  044%=      5-min Rain = 0
KME1 141806Z 17009KT 11/M01 A3033 RMK A01 T01081012  RH  043%=      5-min Rain = 0
KME1 141807Z 14010KT 11/M01 A3033 RMK A01 T01061013  RH  043%=      5-min Rain = 0
KME1 141808Z 15010KT 11/M01 A3033 RMK A01 T01061010  RH  045%=      5-min Rain = 0
KME1 141809Z 15010KT 11/M01 A3033 RMK A01 T01071012  RH  044%=      5-min Rain = 0
KME1 141810Z 15011KT 11/M01 A3033 RMK A01 T01061012  RH  044%=      5-min Rain = 0
KME1 141811Z 14007KT 11/M01 A3033 RMK A01 T01051013  RH  044%=      5-min Rain = 0
KME1 141812Z 15011KT 11/M01 A3033 RMK A01 T01061010  RH  044%=      5-min Rain = 0
KME1 141813Z 16013KT 11/M01 A3033 RMK A01 T01071011  RH  044%=      5-min Rain = 0
KME1 141814Z 16012KT 11/M01 A3033 RMK A01 T01061012  RH  044%=      5-min Rain = 0
KME1 141815Z 16008KT 11/M01 A3033 RMK A01 T01061010  RH  044%=      5-min Rain = 0
KME1 141816Z 18008KT 11/M01 A3033 RMK A01 T01081010  RH  044%=      5-min Rain = 0
KME1 141817Z 17007KT 11/M01 A3032 RMK A01 T01081013  RH  043%=      5-min Rain = 0
KME1 141818Z 15008KT 11/M01 A3032 RMK A01 T01071012  RH  044%=      5-min Rain = 0
KME1 141819Z 13009KT 11/M01 A3032 RMK A01 T01081012  RH  043%=      5-min Rain = 0
KME1 141820Z 15009KT 11/M01 A3032 RMK A01 T01081013  RH  043%=      5-min Rain = 0
KME1 141821Z 14011KT 11/M01 A3032 RMK A01 T01081013  RH  043%=      5-min Rain = 0
KME1 141822Z 15013KT 11/M01 A3032 RMK A01 T01091011  RH  043%=      5-min Rain = 0
KME1 141823Z 15012KT 11/M01 A3032 RMK A01 T01091012  RH  043%=      5-min Rain = 0
KME1 141824Z 16012KT 11/M01 A3032 RMK A01 T01081011  RH  044%=      5-min Rain = 0
KME1 141825Z 18011KT 11/M01 A3032 RMK A01 T01081011  RH  043%=      5-min Rain = 0
KME1 141826Z 17008KT 11/M01 A3032 RMK A01 T01101011  RH  043%=      5-min Rain = 0
KME1 141827Z 17009KT 11/M01 A3032 RMK A01 T01101012  RH  043%=      5-min Rain = 0
KME1 141828Z 18008KT 11/M01 A3032 RMK A01 T01121007  RH  044%=      5-min Rain = 0
KME1 141829Z 19011KT 12/M00 A3032 RMK A01 T01171004  RH  043%=      5-min Rain = 0
KME1 141830Z 18011KT 12/M01 A3032 RMK A01 T01181006  RH  042%=      5-min Rain = 0
KME1 141831Z 17010KT 12/M01 A3031 RMK A01 T01161010  RH  042%=      5-min Rain = 0
KME1 141832Z 16010KT 12/M01 A3031 RMK A01 T01151008  RH  042%=      5-min Rain = 0
KME1 141833Z 17012KT 12/M01 A3031 RMK A01 T01161006  RH  043%=      5-min Rain = 0
KME1 141834Z 16011KT 12/M01 A3031 RMK A01 T01171005  RH  043%=      5-min Rain = 0
KME1 141835Z 15008KT 12/M01 A3031 RMK A01 T01171006  RH  043%=      5-min Rain = 0
KME1 141836Z 17010KT 12/M01 A3031 RMK A01 T01181005  RH  043%=      5-min Rain = 0
KME1 141837Z 18008KT 12/M01 A3031 RMK A01 T01181007  RH  042%=      5-min Rain = 0
KME1 141838Z 18008KT 12/M01 A3031 RMK A01 T01171006  RH  042%=      5-min Rain = 0
KME1 141839Z 18010KT 12/M00 A3031 RMK A01 T01201004  RH  042%=      5-min Rain = 0
KME1 141840Z 18008KT 12/M00 A3031 RMK A01 T01211004  RH  042%=      5-min Rain = 0
KME1 141841Z 18009KT 12/M01 A3031 RMK A01 T01211005  RH  042%=      5-min Rain = 0
KME1 141842Z 17012KT 12/M00 A3031 RMK A01 T01211003  RH  042%=      5-min Rain = 0
KME1 141843Z 17010KT 12/M00 A3031 RMK A01 T01211003  RH  043%=      5-min Rain = 0
KME1 141844Z 18010KT 12/M00 A3031 RMK A01 T01201004  RH  043%=      5-min Rain = 0
KME1 141845Z 16009KT 12/M00 A3031 RMK A01 T01181004  RH  043%=      5-min Rain = 0
KME1 141846Z 16009KT 12/00 A3031 RMK A01 T01200001  RH  044%=      5-min Rain = 0
KME1 141847Z 19010KT 12/00 A3031 RMK A01 T01240002  RH  043%=      5-min Rain = 0
KME1 141848Z 20010KT 13/00 A3031 RMK A01 T01250001  RH  042%=      5-min Rain = 0
KME1 141849Z 18009KT 13/00 A3031 RMK A01 T01250001  RH  043%=      5-min Rain = 0
KME1 141850Z 19009KT 13/M00 A3031 RMK A01 T01251002  RH  042%=      5-min Rain = 0
KME1 141851Z 18008KT 12/M00 A303 RMK A01 T01221003  RH  042%=      5-min Rain = 0
KME1 141852Z 17009KT 12/00 A3031 RMK A01 T01210000  RH  043%=      5-min Rain = 0
KME1 141853Z 16008KT 12/M00 A3031 RMK A01 T01221002  RH  042%=      5-min Rain = 0
KME1 141854Z 13011KT 12/00 A303 RMK A01 T01220001  RH  043%=      5-min Rain = 0
KME1 141855Z 16008KT 12/00 A303 RMK A01 T012200-0  RH  043%=      5-min Rain = 0
KME1 141856Z 18010KT 12/00 A303 RMK A01 T01230001  RH  043%=      5-min Rain = 0
KME1 141857Z 20009KT 12/00 A303 RMK A01 T01240002  RH  043%=      5-min Rain = 0
KME1 141858Z 17009KT 12/00 A303 RMK A01 T01240003  RH  043%=      5-min Rain = 0
KME1 141859Z 16013KT 13/00 A303 RMK A01 T01250004  RH  044%=      5-min Rain = 0
KME1 141900Z 16009G14KT 13/00 A303 RMK A01 T01250003  RH  043%=      5-min Rain = 0
KME1 141901Z 17011KT 12/00 A303 RMK A01 T01240003  RH  043%=      5-min Rain = 0
KME1 141902Z 18010KT 12/00 A303 RMK A01 T01240002  RH  043%=      5-min Rain = 0
KME1 141903Z 16013KT 12/00 A303 RMK A01 T01230004  RH  044%=      5-min Rain = 0
KME1 141904Z 17011KT 13/01 A303 RMK A01 T01250006  RH  044%=      5-min Rain = 0
KME1 141905Z 17008G13KT 13/01 A303 RMK A01 T01260006  RH  044%=      5-min Rain = 0
KME1 141906Z 16009KT 13/01 A303 RMK A01 T01290009  RH  044%=      5-min Rain = 0
KME1 141907Z 16009KT 13/01 A303 RMK A01 T01310008  RH  043%=      5-min Rain = 0
KME1 141908Z 16012KT 13/01 A303 RMK A01 T01310008  RH  043%=      5-min Rain = 0
KME1 141909Z 19010G15KT 13/01 A303 RMK A01 T01290007  RH  043%=      5-min Rain = 0
KME1 141910Z 18009KT 13/01 A303 RMK A01 T01260005  RH  044%=      5-min Rain = 0
KME1 141911Z 17008KT 13/01 A303 RMK A01 T01250005  RH  044%=      5-min Rain = 0
KME1 141912Z 19011KT 13/01 A303 RMK A01 T01250007  RH  044%=      5-min Rain = 0
KME1 141913Z 19011KT 13/01 A303 RMK A01 T01260007  RH  044%=      5-min Rain = 0
KME1 141914Z 19012KT 13/01 A303 RMK A01 T01250009  RH  045%=      5-min Rain = 0
KME1 141915Z 17010KT 13/01 A303 RMK A01 T01250007  RH  044%=      5-min Rain = 0
KME1 141916Z 17011KT 12/00 A303 RMK A01 T01240004  RH  044%=      5-min Rain = 0
KME1 141917Z 17008KT 12/00 A303 RMK A01 T01230003  RH  044%=      5-min Rain = 0
KME1 141918Z 18009KT 12/00 A303 RMK A01 T01230004  RH  044%=      5-min Rain = 0
KME1 141919Z 20007KT 13/01 A303 RMK A01 T01250008  RH  045%=      5-min Rain = 0
KME1 141920Z 17010KT 13/01 A303 RMK A01 T01280009  RH  044%=      5-min Rain = 0
KME1 141921Z 15010KT 13/01 A303 RMK A01 T01290010  RH  044%=      5-min Rain = 0
KME1 141922Z 16009KT 13/01 A303 RMK A01 T01320011  RH  044%=      5-min Rain = 0
KME1 141923Z 17008KT 13/01 A303 RMK A01 T01310007  RH  043%=      5-min Rain = 0
KME1 141924Z 16007KT 13/01 A303 RMK A01 T01290008  RH  043%=      5-min Rain = 0
KME1 141925Z 16008KT 13/01 A3029 RMK A01 T01290005  RH  043%=      5-min Rain = 0
KME1 141926Z 17007KT 13/00 A3029 RMK A01 T01250004  RH  043%=      5-min Rain = 0
KME1 141927Z 15006KT 13/01 A3029 RMK A01 T01250005  RH  044%=      5-min Rain = 0
KME1 141928Z 18006KT 13/01 A3029 RMK A01 T01270008  RH  044%=      5-min Rain = 0
KME1 141929Z 19012KT 13/01 A3029 RMK A01 T01290010  RH  044%=      5-min Rain = 0
KME1 141930Z 18014KT 13/01 A3029 RMK A01 T01310010  RH  044%=      5-min Rain = 0
KME1 141931Z 19011KT 13/01 A3029 RMK A01 T01290009  RH  044%=      5-min Rain = 0
KME1 141932Z 20010KT 13/01 A3029 RMK A01 T01280010  RH  045%=      5-min Rain = 0
KME1 141933Z 20009KT 13/01 A3029 RMK A01 T01270011  RH  045%=      5-min Rain = 0
KME1 141934Z 17009G14KT 13/01 A3029 RMK A01 T01270011  RH  045%=      5-min Rain = 0
KME1 141935Z 15009KT 13/01 A3029 RMK A01 T01280011  RH  045%=      5-min Rain = 0
KME1 141936Z 18010KT 13/01 A3029 RMK A01 T01320012  RH  044%=      5-min Rain = 0
KME1 141937Z 18012KT 13/01 A3029 RMK A01 T01320012  RH  044%=      5-min Rain = 0
KME1 141938Z 18011KT 13/01 A3029 RMK A01 T01320012  RH  044%=      5-min Rain = 0
KME1 141939Z 18009KT 13/01 A3029 RMK A01 T01300010  RH  044%=      5-min Rain = 0
KME1 141940Z 17008KT 13/01 A3029 RMK A01 T01290010  RH  044%=      5-min Rain = 0
KME1 141941Z 16006KT 13/01 A3029 RMK A01 T01280010  RH  044%=      5-min Rain = 0
KME1 141942Z 18005KT 13/01 A3028 RMK A01 T01290011  RH  044%=      5-min Rain = 0
KME1 141943Z 18007G13KT 13/01 A3028 RMK A01 T01320013  RH  044%=      5-min Rain = 0
KME1 141944Z 19011KT 13/01 A3028 RMK A01 T01340013  RH  044%=      5-min Rain = 0
KME1 141945Z 17009KT 14/01 A3028 RMK A01 T01350014  RH  044%=      5-min Rain = 0
KME1 141946Z 16010KT 14/02 A3028 RMK A01 T01360016  RH  044%=      5-min Rain = 0
KME1 141947Z 16009KT 14/02 A3028 RMK A01 T01370015  RH  043%=      5-min Rain = 0
KME1 141948Z 15007KT 14/02 A3028 RMK A01 T01370015  RH  044%=      5-min Rain = 0
KME1 141949Z 15007KT 14/01 A3028 RMK A01 T01370014  RH  043%=      5-min Rain = 0
KME1 141950Z 17007KT 14/01 A3028 RMK A01 T01360010  RH  042%=      5-min Rain = 0
KME1 141951Z 19009KT 13/01 A3028 RMK A01 T01330012  RH  044%=      5-min Rain = 0
KME1 141952Z 19012KT 13/01 A3028 RMK A01 T01330014  RH  044%=      5-min Rain = 0
KME1 141953Z 19012KT 13/01 A3027 RMK A01 T01330014  RH  045%=      5-min Rain = 0
KME1 141954Z 18011KT 13/02 A3027 RMK A01 T01330016  RH  045%=      5-min Rain = 0
KME1 141955Z 18009KT 14/02 A3027 RMK A01 T01350017  RH  045%=      5-min Rain = 0
KME1 141956Z 19011KT 14/02 A3027 RMK A01 T01360017  RH  044%=      5-min Rain = 0
KME1 141957Z 17010KT 14/02 A3027 RMK A01 T01360016  RH  044%=      5-min Rain = 0
KME1 141958Z 17009KT 14/02 A3027 RMK A01 T01360016  RH  044%=      5-min Rain = 0
KME1 141959Z 17008KT 14/02 A3027 RMK A01 T01370016  RH  044%=      5-min Rain = 0
KME1 142000Z 18008KT 14/02 A3027 RMK A01 T01370015  RH  044%=      5-min Rain = 0
KME1 142001Z 15008KT 14/02 A3027 RMK A01 T01360015  RH  044%=      5-min Rain = 0
KME1 142002Z 17009KT 14/01 A3027 RMK A01 T01360014  RH  043%=      5-min Rain = 0
KME1 142003Z 18007KT 14/02 A3027 RMK A01 T01360015  RH  044%=      5-min Rain = 0
KME1 142004Z 18009KT 14/02 A3027 RMK A01 T01360018  RH  045%=      5-min Rain = 0
KME1 142005Z 19011KT 14/02 A3027 RMK A01 T01390017  RH  044%=      5-min Rain = 0
KME1 142006Z 19006KT 14/02 A3027 RMK A01 T01380017  RH  044%=      5-min Rain = 0
KME1 142007Z 19010KT 14/02 A3026 RMK A01 T01410018  RH  043%=      5-min Rain = 0
KME1 142008Z 17010KT 14/02 A3026 RMK A01 T01400016  RH  043%=      5-min Rain = 0
KME1 142009Z 17011KT 14/02 A3026 RMK A01 T01390017  RH  044%=      5-min Rain = 0
KME1 142010Z 17010G15KT 14/02 A3026 RMK A01 T01370016  RH  044%=      5-min Rain = 0
KME1 142011Z 18011KT 14/01 A3026 RMK A01 T01360014  RH  044%=      5-min Rain = 0
KME1 142012Z 18007KT 14/01 A3026 RMK A01 T01350014  RH  044%=      5-min Rain = 0
KME1 142013Z 17009KT 14/02 A3026 RMK A01 T01350017  RH  044%=      5-min Rain = 0
KME1 142014Z 18012KT 14/02 A3026 RMK A01 T01390018  RH  044%=      5-min Rain = 0
KME1 142015Z 18010KT 14/02 A3026 RMK A01 T01420019  RH  043%=      5-min Rain = 0
KME1 142016Z 19010KT 14/02 A3026 RMK A01 T01420017  RH  043%=      5-min Rain = 0
KME1 142017Z 16012KT 14/02 A3026 RMK A01 T01410017  RH  043%=      5-min Rain = 0
KME1 142018Z 16012KT 14/02 A3026 RMK A01 T01400016  RH  043%=      5-min Rain = 0
KME1 142019Z 17010KT 14/02 A3026 RMK A01 T01400016  RH  043%=      5-min Rain = 0
KME1 142020Z 17008KT 14/02 A3026 RMK A01 T01380015  RH  043%=      5-min Rain = 0
KME1 142021Z 17009KT 14/02 A3026 RMK A01 T01380015  RH  043%=      5-min Rain = 0
KME1 142022Z 17009KT 14/01 A3026 RMK A01 T01360014  RH  044%=      5-min Rain = 0
KME1 142023Z 16006G11KT 14/02 A3026 RMK A01 T01360015  RH  044%=      5-min Rain = 0
KME1 142024Z 18009KT 14/02 A3025 RMK A01 T01390019  RH  044%=      5-min Rain = 0
KME1 142025Z 16011KT 14/02 A3025 RMK A01 T01410017  RH  043%=      5-min Rain = 0
KME1 142026Z 17008KT 14/02 A3025 RMK A01 T01420019  RH  043%=      5-min Rain = 0
KME1 142027Z 16014G19KT 15/02 A3025 RMK A01 T01450021  RH  043%=      5-min Rain = 0
KME1 142028Z 16014KT 15/02 A3025 RMK A01 T01450021  RH  043%=      5-min Rain = 0
KME1 142029Z 17013KT 14/02 A3025 RMK A01 T01430018  RH  043%=      5-min Rain = 0
KME1 142030Z 17009KT 14/02 A3025 RMK A01 T01400019  RH  044%=      5-min Rain = 0
KME1 142031Z 18009KT 14/02 A3025 RMK A01 T01410019  RH  044%=      5-min Rain = 0
KME1 142032Z 15011G17KT 14/02 A3025 RMK A01 T01420021  RH  044%=      5-min Rain = 0
KME1 142033Z 16009KT 15/02 A3025 RMK A01 T01450022  RH  043%=      5-min Rain = 0
KME1 142034Z 16010KT 15/02 A3025 RMK A01 T01460020  RH  043%=      5-min Rain = 0
KME1 142035Z 16010KT 14/02 A3025 RMK A01 T01420017  RH  042%=      5-min Rain = 0
KME1 142036Z 18009KT 14/02 A3025 RMK A01 T01410020  RH  044%=      5-min Rain = 0
KME1 142037Z 19014KT 14/02 A3025 RMK A01 T01430021  RH  044%=      5-min Rain = 0
KME1 142038Z 19013KT 14/02 A3025 RMK A01 T01420020  RH  043%=      5-min Rain = 0
KME1 142039Z 19011KT 14/02 A3025 RMK A01 T01400019  RH  044%=      5-min Rain = 0
KME1 142040Z 17011KT 14/02 A3025 RMK A01 T01400021  RH  044%=      5-min Rain = 0
KME1 142041Z 17010KT 14/02 A3025 RMK A01 T01410020  RH  044%=      5-min Rain = 0
KME1 142042Z 16008KT 14/02 A3025 RMK A01 T01420021  RH  044%=      5-min Rain = 0
KME1 142043Z 17009KT 14/02 A3025 RMK A01 T01420021  RH  044%=      5-min Rain = 0
KME1 142044Z 17012KT 14/02 A3025 RMK A01 T01430021  RH  044%=      5-min Rain = 0
KME1 142045Z 18014KT 14/02 A3025 RMK A01 T01420020  RH  044%=      5-min Rain = 0
KME1 142046Z 16012KT 14/02 A3025 RMK A01 T01410020  RH  044%=      5-min Rain = 0
KME1 142047Z 18010KT 14/02 A3025 RMK A01 T01410021  RH  044%=      5-min Rain = 0
KME1 142048Z 18012KT 14/02 A3025 RMK A01 T01410021  RH  044%=      5-min Rain = 0
KME1 142049Z 18009KT 14/02 A3025 RMK A01 T01410020  RH  044%=      5-min Rain = 0
KME1 142050Z 18009KT 14/02 A3024 RMK A01 T01420022  RH  044%=      5-min Rain = 0
KME1 142051Z 18011KT 14/02 A3024 RMK A01 T01420020  RH  044%=      5-min Rain = 0
KME1 142052Z 17008KT 14/02 A3024 RMK A01 T01410020  RH  044%=      5-min Rain = 0
KME1 142053Z 17011KT 14/02 A3024 RMK A01 T01420023  RH  045%=      5-min Rain = 0
KME1 142054Z 18011KT 14/02 A3024 RMK A01 T01440022  RH  044%=      5-min Rain = 0
KME1 142055Z 18007KT 14/02 A3024 RMK A01 T01430020  RH  043%=      5-min Rain = 0
KME1 142056Z 18012KT 14/02 A3024 RMK A01 T01410020  RH  044%=      5-min Rain = 0
KME1 142057Z 19013KT 14/02 A3024 RMK A01 T01410021  RH  044%=      5-min Rain = 0
KME1 142058Z 18012KT 14/02 A3024 RMK A01 T01400021  RH  044%=      5-min Rain = 0
KME1 142059Z 17013KT 14/02 A3024 RMK A01 T01410022  RH  045%=      5-min Rain = 0
KME1 142100Z 18013KT 14/02 A3024 RMK A01 T01410022  RH  045%=      5-min Rain = 0
KME1 142101Z 18013KT 14/02 A3024 RMK A01 T01410021  RH  044%=      5-min Rain = 0
KME1 142102Z 17011KT 14/02 A3024 RMK A01 T01400021  RH  044%=      5-min Rain = 0
KME1 142103Z 17007KT 14/02 A3024 RMK A01 T01390020  RH  044%=      5-min Rain = 0
KME1 142104Z 18006KT 14/02 A3024 RMK A01 T01400022  RH  045%=      5-min Rain = 0
KME1 142105Z 16006KT 14/02 A3024 RMK A01 T01430023  RH  044%=      5-min Rain = 0
KME1 142106Z 17012G18KT 14/02 A3024 RMK A01 T01440023  RH  044%=      5-min Rain = 0
KME1 142107Z 17012KT 14/02 A3024 RMK A01 T01440023  RH  044%=      5-min Rain = 0
KME1 142108Z 16011KT 14/02 A3024 RMK A01 T01420021  RH  044%=      5-min Rain = 0
KME1 142109Z 17012KT 14/02 A3024 RMK A01 T01410022  RH  044%=      5-min Rain = 0
KME1 142110Z 17009KT 14/02 A3024 RMK A01 T01400021  RH  044%=      5-min Rain = 0
KME1 142111Z 18012KT 14/02 A3024 RMK A01 T01390021  RH  045%=      5-min Rain = 0
KME1 142112Z 19012KT 14/02 A3024 RMK A01 T01400023  RH  045%=      5-min Rain = 0
KME1 142113Z 18014KT 14/02 A3024 RMK A01 T01420023  RH  044%=      5-min Rain = 0
KME1 142114Z 18013KT 14/02 A3024 RMK A01 T01420022  RH  044%=      5-min Rain = 0
KME1 142115Z 18011KT 14/02 A3024 RMK A01 T01410023  RH  045%=      5-min Rain = 0
KME1 142116Z 18013KT 14/02 A3024 RMK A01 T01420023  RH  045%=      5-min Rain = 0
KME1 142117Z 17009KT 14/02 A3024 RMK A01 T01420022  RH  044%=      5-min Rain = 0
KME1 142118Z 20010KT 14/02 A3024 RMK A01 T01430023  RH  044%=      5-min Rain = 0
KME1 142119Z 19009KT 14/02 A3024 RMK A01 T01430021  RH  044%=      5-min Rain = 0
KME1 142120Z 18010KT 14/02 A3024 RMK A01 T01410021  RH  044%=      5-min Rain = 0
KME1 142121Z 17010KT 14/02 A3024 RMK A01 T01420023  RH  044%=      5-min Rain = 0
KME1 142122Z 16012KT 14/02 A3024 RMK A01 T01430023  RH  044%=      5-min Rain = 0
KME1 142123Z 17009KT 14/02 A3024 RMK A01 T01440024  RH  044%=      5-min Rain = 0
KME1 142124Z 18008KT 15/03 A3023 RMK A01 T01450025  RH  044%=      5-min Rain = 0
KME1 142125Z 17006KT 15/02 A3023 RMK A01 T01460023  RH  044%=      5-min Rain = 0
KME1 142126Z 17007KT 15/02 A3023 RMK A01 T01470024  RH  043%=      5-min Rain = 0
KME1 142127Z 18010KT 15/02 A3023 RMK A01 T01470024  RH  043%=      5-min Rain = 0
KME1 142128Z 16012KT 15/03 A3023 RMK A01 T01490027  RH  044%=      5-min Rain = 0
KME1 142129Z 15009KT 15/02 A3023 RMK A01 T01500024  RH  043%=      5-min Rain = 0
KME1 142130Z 15011KT 15/02 A3023 RMK A01 T01470023  RH  043%=      5-min Rain = 0
KME1 142131Z 17009KT 15/02 A3023 RMK A01 T01450022  RH  043%=      5-min Rain = 0
KME1 142132Z 17011KT 15/02 A3023 RMK A01 T01450023  RH  044%=      5-min Rain = 0
KME1 142133Z 17009KT 15/02 A3023 RMK A01 T01450022  RH  043%=      5-min Rain = 0
KME1 142134Z 17007G13KT 14/02 A3023 RMK A01 T01440022  RH  044%=      5-min Rain = 0
KME1 142135Z 16009G14KT 15/02 A3023 RMK A01 T01450024  RH  044%=      5-min Rain = 0
KME1 142136Z 16012KT 15/03 A3023 RMK A01 T01470025  RH  044%=      5-min Rain = 0
KME1 142137Z 16012KT 15/02 A3023 RMK A01 T01460022  RH  043%=      5-min Rain = 0
KME1 142138Z 16008KT 15/02 A3023 RMK A01 T01450023  RH  044%=      5-min Rain = 0
KME1 142139Z 16013KT 14/02 A3023 RMK A01 T01440023  RH  044%=      5-min Rain = 0
KME1 142140Z 16013KT 15/02 A3023 RMK A01 T01450023  RH  044%=      5-min Rain = 0
KME1 142141Z 17012KT 15/02 A3023 RMK A01 T01450023  RH  044%=      5-min Rain = 0
KME1 142142Z 17012KT 14/02 A3022 RMK A01 T01430022  RH  044%=      5-min Rain = 0
KME1 142143Z 18011KT 14/02 A3023 RMK A01 T01430024  RH  044%=      5-min Rain = 0
KME1 142144Z 17008KT 14/02 A3022 RMK A01 T01440024  RH  044%=      5-min Rain = 0
KME1 142145Z 16008KT 15/02 A3022 RMK A01 T01460024  RH  044%=      5-min Rain = 0
KME1 142146Z 18007KT 15/03 A3022 RMK A01 T01460025  RH  044%=      5-min Rain = 0
KME1 142147Z 16009KT 15/03 A3022 RMK A01 T01470026  RH  044%=      5-min Rain = 0
KME1 142148Z 19012KT 15/03 A3022 RMK A01 T01480026  RH  044%=      5-min Rain = 0
KME1 142149Z 17011KT 15/03 A3022 RMK A01 T01480025  RH  044%=      5-min Rain = 0
KME1 142150Z 15015KT 15/03 A3022 RMK A01 T01480025  RH  044%=      5-min Rain = 0
KME1 142151Z 15013G18KT 15/02 A3022 RMK A01 T01460023  RH  044%=      5-min Rain = 0
KME1 142152Z 16010KT 14/02 A3022 RMK A01 T01440023  RH  044%=      5-min Rain = 0
KME1 142153Z 16011KT 14/02 A3022 RMK A01 T01440024  RH  044%=      5-min Rain = 0
KME1 142154Z 16009KT 15/02 A3022 RMK A01 T01460024  RH  044%=      5-min Rain = 0
KME1 142155Z 17009KT 15/02 A3022 RMK A01 T01460024  RH  044%=      5-min Rain = 0
KME1 142156Z 17011G16KT 15/03 A3022 RMK A01 T01470025  RH  044%=      5-min Rain = 0
KME1 142157Z 19011G16KT 15/02 A3022 RMK A01 T01470024  RH  044%=      5-min Rain = 0
KME1 142158Z 18014KT 15/03 A3022 RMK A01 T01470025  RH  043%=      5-min Rain = 0
KME1 142159Z 16013KT 15/03 A3022 RMK A01 T01470025  RH  044%=      5-min Rain = 0
KME1 142200Z 16013KT 15/03 A3022 RMK A01 T01480025  RH  043%=      5-min Rain = 0
KME1 142201Z 16011KT 15/02 A3022 RMK A01 T01460024  RH  044%=      5-min Rain = 0
KME1 142202Z 16009KT 15/02 A3022 RMK A01 T01450024  RH  044%=      5-min Rain = 0
KME1 142203Z 16012KT 15/02 A3022 RMK A01 T01450024  RH  044%=      5-min Rain = 0
KME1 142204Z 15008KT 15/02 A3022 RMK A01 T01450023  RH  044%=      5-min Rain = 0
KME1 142205Z 14007KT 14/02 A3022 RMK A01 T01440022  RH  044%=      5-min Rain = 0
KME1 142206Z 17008G13KT 14/02 A3022 RMK A01 T01430023  RH  044%=      5-min Rain = 0
KME1 142207Z 17012KT 15/03 A3022 RMK A01 T01450025  RH  044%=      5-min Rain = 0
KME1 142208Z 18010KT 15/03 A3022 RMK A01 T01450025  RH  044%=      5-min Rain = 0
KME1 142209Z 18012KT 15/03 A3022 RMK A01 T01470027  RH  044%=      5-min Rain = 0
KME1 142210Z 19014KT 15/03 A3022 RMK A01 T01480026  RH  044%=      5-min Rain = 0
KME1 142211Z 18011KT 15/03 A3022 RMK A01 T01470026  RH  044%=      5-min Rain = 0
KME1 142212Z 18013KT 15/03 A3022 RMK A01 T01470026  RH  044%=      5-min Rain = 0
KME1 142213Z 18012KT 15/03 A3022 RMK A01 T01460026  RH  044%=      5-min Rain = 0
KME1 142214Z 18013KT 15/03 A3022 RMK A01 T01460027  RH  045%=      5-min Rain = 0
KME1 142215Z 18009KT 15/03 A3022 RMK A01 T01450027  RH  045%=      5-min Rain = 0
KME1 142216Z 17011KT 15/03 A3022 RMK A01 T01460028  RH  045%=      5-min Rain = 0
KME1 142217Z 17010KT 15/03 A3022 RMK A01 T01460026  RH  044%=      5-min Rain = 0
KME1 142218Z 16010KT 15/03 A3022 RMK A01 T01460026  RH  045%=      5-min Rain = 0
KME1 142219Z 15011KT 15/03 A3022 RMK A01 T01450027  RH  045%=      5-min Rain = 0
KME1 142220Z 16010KT 15/03 A3022 RMK A01 T01450027  RH  045%=      5-min Rain = 0
KME1 142221Z 14010KT 14/03 A3022 RMK A01 T01440027  RH  045%=      5-min Rain = 0
KME1 142222Z 14007KT 14/03 A3022 RMK A01 T01440027  RH  045%=      5-min Rain = 0
KME1 142223Z 13007KT 15/03 A3022 RMK A01 T01450028  RH  045%=      5-min Rain = 0
KME1 142224Z 14008KT 15/03 A3022 RMK A01 T01470029  RH  045%=      5-min Rain = 0
KME1 142225Z 15008KT 15/03 A3022 RMK A01 T01480028  RH  045%=      5-min Rain = 0
KME1 142226Z 17009KT 15/03 A3022 RMK A01 T01480029  RH  045%=      5-min Rain = 0
KME1 142227Z 17010KT 15/03 A3022 RMK A01 T01480029  RH  045%=      5-min Rain = 0
KME1 142228Z 18010KT 15/03 A3022 RMK A01 T01480028  RH  045%=      5-min Rain = 0
KME1 142229Z 18010G15KT 15/03 A3022 RMK A01 T01480028  RH  045%=      5-min Rain = 0
KME1 142230Z 18012KT 15/03 A3022 RMK A01 T01490028  RH  044%=      5-min Rain = 0
KME1 142231Z 16010KT 15/03 A3022 RMK A01 T01490028  RH  044%=      5-min Rain = 0
KME1 142232Z 16011KT 15/03 A3022 RMK A01 T01490029  RH  045%=      5-min Rain = 0
KME1 142233Z 16010KT 15/03 A3022 RMK A01 T01500029  RH  044%=      5-min Rain = 0
KME1 142234Z 16011KT 15/03 A3022 RMK A01 T01500029  RH  044%=      5-min Rain = 0
KME1 142235Z 15013KT 15/03 A3022 RMK A01 T01500029  RH  044%=      5-min Rain = 0
KME1 142236Z 14013KT 15/03 A3022 RMK A01 T01470027  RH  044%=      5-min Rain = 0
KME1 142237Z 15010KT 15/03 A3022 RMK A01 T01460027  RH  045%=      5-min Rain = 0
KME1 142238Z 15009KT 14/03 A3022 RMK A01 T01440026  RH  045%=      5-min Rain = 0
KME1 142239Z 14007KT 14/03 A3022 RMK A01 T01440027  RH  045%=      5-min Rain = 0
KME1 142240Z 15006KT 14/03 A3022 RMK A01 T01440027  RH  045%=      5-min Rain = 0
KME1 142241Z 17007KT 15/03 A3022 RMK A01 T01450028  RH  045%=      5-min Rain = 0
KME1 142242Z 18008KT 15/03 A3022 RMK A01 T01460030  RH  046%=      5-min Rain = 0
KME1 142243Z 18009KT 15/03 A3022 RMK A01 T01470031  RH  045%=      5-min Rain = 0
KME1 142244Z 17010KT 15/03 A3022 RMK A01 T01470030  RH  045%=      5-min Rain = 0
KME1 142245Z 15009KT 15/03 A3022 RMK A01 T01470030  RH  045%=      5-min Rain = 0
KME1 142246Z 16008KT 15/03 A3022 RMK A01 T01460030  RH  045%=      5-min Rain = 0
KME1 142247Z 16008KT 15/03 A3021 RMK A01 T01460030  RH  046%=      5-min Rain = 0
KME1 142248Z 16008KT 15/03 A3021 RMK A01 T01450030  RH  046%=      5-min Rain = 0
KME1 142249Z 17010KT 15/03 A3021 RMK A01 T01450031  RH  046%=      5-min Rain = 0
KME1 142250Z 16009KT 15/03 A3021 RMK A01 T01470032  RH  046%=      5-min Rain = 0
KME1 142251Z 17007KT 15/03 A3021 RMK A01 T01480034  RH  046%=      5-min Rain = 0
KME1 142252Z 17008KT 15/03 A3021 RMK A01 T01490034  RH  046%=      5-min Rain = 0
KME1 142253Z 18011KT 15/03 A3021 RMK A01 T01490034  RH  046%=      5-min Rain = 0
KME1 142254Z 17011KT 15/03 A3021 RMK A01 T01490032  RH  045%=      5-min Rain = 0
KME1 142255Z 16011KT 15/03 A3021 RMK A01 T01470030  RH  045%=      5-min Rain = 0
KME1 142256Z 15009KT 15/03 A3021 RMK A01 T01450030  RH  046%=      5-min Rain = 0
KME1 142257Z 16007KT 15/03 A3021 RMK A01 T01450031  RH  046%=      5-min Rain = 0
KME1 142258Z 17009KT 15/03 A3021 RMK A01 T01450030  RH  046%=      5-min Rain = 0
KME1 142259Z 18011KT 15/03 A3021 RMK A01 T01450031  RH  046%=      5-min Rain = 0
KME1 142300Z 19010KT 15/03 A3021 RMK A01 T01450032  RH  047%=      5-min Rain = 0
KME1 142301Z 19010KT 14/03 A3021 RMK A01 T01440032  RH  047%=      5-min Rain = 0
KME1 142302Z 19009KT 14/03 A3021 RMK A01 T01440032  RH  047%=      5-min Rain = 0
KME1 142303Z 19011KT 15/03 A3021 RMK A01 T01450033  RH  047%=      5-min Rain = 0
KME1 142304Z 19013KT 14/03 A3021 RMK A01 T01440032  RH  047%=      5-min Rain = 0
KME1 142305Z 18011KT 14/03 A3021 RMK A01 T01430031  RH  047%=      5-min Rain = 0
KME1 142306Z 17010KT 14/03 A3021 RMK A01 T01430032  RH  047%=      5-min Rain = 0
KME1 142307Z 16009KT 14/03 A3021 RMK A01 T01430032  RH  047%=      5-min Rain = 0
KME1 142308Z 16010KT 14/03 A3021 RMK A01 T01430033  RH  047%=      5-min Rain = 0
KME1 142309Z 18009KT 15/03 A3021 RMK A01 T01450034  RH  047%=      5-min Rain = 0
KME1 142310Z 18010G15KT 15/03 A3021 RMK A01 T01460034  RH  047%=      5-min Rain = 0
KME1 142311Z 18012KT 15/03 A3021 RMK A01 T01460032  RH  046%=      5-min Rain = 0
KME1 142312Z 17011KT 14/03 A3021 RMK A01 T01440031  RH  047%=      5-min Rain = 0
KME1 142313Z 17013KT 14/03 A3021 RMK A01 T01430031  RH  047%=      5-min Rain = 0
KME1 142314Z 16011KT 14/03 A3021 RMK A01 T01420029  RH  047%=      5-min Rain = 0
KME1 142315Z 17009KT 14/03 A3021 RMK A01 T01410029  RH  047%=      5-min Rain = 0
KME1 142316Z 18009KT 14/03 A3021 RMK A01 T01410031  RH  047%=      5-min Rain = 0
KME1 142317Z 17011KT 14/03 A3021 RMK A01 T01410031  RH  047%=      5-min Rain = 0
KME1 142318Z 17011KT 14/03 A3021 RMK A01 T01410031  RH  047%=      5-min Rain = 0
KME1 142319Z 16010KT 14/03 A3021 RMK A01 T01410031  RH  047%=      5-min Rain = 0
KME1 142320Z 18010KT 14/03 A3021 RMK A01 T01410032  RH  048%=      5-min Rain = 0
KME1 142321Z 18013KT 14/03 A3021 RMK A01 T01410032  RH  048%=      5-min Rain = 0
KME1 142322Z 16011G16KT 14/03 A3021 RMK A01 T01410032  RH  048%=      5-min Rain = 0
KME1 142323Z 16011KT 14/03 A3021 RMK A01 T01410030  RH  047%=      5-min Rain = 0
KME1 142324Z 15011KT 14/03 A3021 RMK A01 T01400031  RH  048%=      5-min Rain = 0
KME1 142325Z 16011KT 14/03 A3021 RMK A01 T01400030  RH  047%=      5-min Rain = 0
KME1 142326Z 16009KT 14/03 A3021 RMK A01 T01400030  RH  047%=      5-min Rain = 0
KME1 142327Z 15010KT 14/03 A3021 RMK A01 T01400030  RH  047%=      5-min Rain = 0
KME1 142328Z 16008KT 14/03 A3021 RMK A01 T01390030  RH  048%=      5-min Rain = 0
KME1 142329Z 17009KT 14/03 A3021 RMK A01 T01390030  RH  048%=      5-min Rain = 0
KME1 142330Z 16009KT 14/03 A3021 RMK A01 T01390030  RH  048%=      5-min Rain = 0
KME1 142331Z 17010KT 14/03 A3021 RMK A01 T01400030  RH  048%=      5-min Rain = 0
KME1 142332Z 18011KT 14/03 A302 RMK A01 T01400031  RH  048%=      5-min Rain = 0
KME1 142333Z 17010KT 14/03 A302 RMK A01 T01390031  RH  048%=      5-min Rain = 0
KME1 142334Z 17013KT 14/03 A3021 RMK A01 T01390030  RH  048%=      5-min Rain = 0
KME1 142335Z 17010KT 14/03 A3021 RMK A01 T01380030  RH  048%=      5-min Rain = 0
KME1 142336Z 17011KT 14/03 A3021 RMK A01 T01370030  RH  048%=      5-min Rain = 0
KME1 142337Z 17010KT 14/03 A3021 RMK A01 T01370030  RH  048%=      5-min Rain = 0
KME1 142338Z 17009KT 14/03 A3021 RMK A01 T01380031  RH  048%=      5-min Rain = 0
KME1 142339Z 17009KT 14/03 A302 RMK A01 T01370030  RH  048%=      5-min Rain = 0
KME1 142340Z 16007KT 14/03 A3021 RMK A01 T01370031  RH  049%=      5-min Rain = 0
KME1 142341Z 15010KT 14/03 A3021 RMK A01 T01370031  RH  049%=      5-min Rain = 0
KME1 142342Z 15012KT 14/03 A3021 RMK A01 T01370030  RH  048%=      5-min Rain = 0
KME1 142343Z 15011KT 14/03 A3021 RMK A01 T01370030  RH  049%=      5-min Rain = 0
KME1 142344Z 15010KT 14/03 A3021 RMK A01 T01370030  RH  048%=      5-min Rain = 0
KME1 142345Z 14010KT 14/03 A3021 RMK A01 T01360030  RH  048%=      5-min Rain = 0
KME1 142346Z 16006KT 14/03 A3021 RMK A01 T01360030  RH  049%=      5-min Rain = 0
KME1 142347Z 16007KT 14/03 A3021 RMK A01 T01360031  RH  049%=      5-min Rain = 0
KME1 142348Z 15008KT 14/03 A3021 RMK A01 T01360030  RH  049%=      5-min Rain = 0
KME1 142349Z 16010KT 14/03 A3021 RMK A01 T01360030  RH  049%=      5-min Rain = 0
KME1 142350Z 16010KT 14/03 A3021 RMK A01 T01350030  RH  049%=      5-min Rain = 0
KME1 142351Z 15012KT 14/03 A3021 RMK A01 T01350029  RH  049%=      5-min Rain = 0
KME1 142352Z 16013KT 13/03 A3021 RMK A01 T01340029  RH  049%=      5-min Rain = 0
KME1 142353Z 16011KT 13/03 A3021 RMK A01 T01340029  RH  049%=      5-min Rain = 0
KME1 142354Z 17009KT 13/03 A302 RMK A01 T01330029  RH  049%=      5-min Rain = 0
KME1 142355Z 16011KT 13/03 A302 RMK A01 T01330029  RH  049%=      5-min Rain = 0
KME1 142356Z 16010KT 13/03 A302 RMK A01 T01330028  RH  049%=      5-min Rain = 0
KME1 142357Z 16011KT 13/03 A3021 RMK A01 T01320028  RH  049%=      5-min Rain = 0
KME1 142358Z 15010KT 13/03 A3021 RMK A01 T01320029  RH  049%=      5-min Rain = 0
KME1 142359Z 16010KT 13/03 A3021 RMK A01 T01310028  RH  050%=      5-min Rain = 0
KME1 150000Z 16011KT 13/03 A3021 RMK A01 T01310028  RH  050%=      5-min Rain = 0
KME1 150001Z 16010KT 13/03 A3021 RMK A01 T01310028  RH  050%=      5-min Rain = 0
KME1 150002Z 17009KT 13/03 A3021 RMK A01 T01310028  RH  050%=      5-min Rain = 0
KME1 150003Z 16010KT 13/03 A3021 RMK A01 T01300028  RH  050%=      5-min Rain = 0
KME1 150004Z 16012KT 13/03 A3021 RMK A01 T01290028  RH  050%=      5-min Rain = 0
KME1 150005Z 16009KT 13/03 A3021 RMK A01 T01290028  RH  050%=      5-min Rain = 0
KME1 150006Z 16009KT 13/03 A3021 RMK A01 T01290029  RH  051%=      5-min Rain = 0
KME1 150007Z 16008KT 13/03 A3021 RMK A01 T01280029  RH  051%=      5-min Rain = 0
KME1 150008Z 17008KT 13/03 A3021 RMK A01 T01280028  RH  051%=      5-min Rain = 0
KME1 150009Z 16009KT 13/03 A3021 RMK A01 T01270029  RH  051%=      5-min Rain = 0
KME1 150010Z 16009KT 13/03 A3021 RMK A01 T01270029  RH  051%=      5-min Rain = 0
KME1 150011Z 17007KT 13/03 A3021 RMK A01 T01270029  RH  051%=      5-min Rain = 0
KME1 150012Z 17008KT 13/03 A3021 RMK A01 T01260029  RH  051%=      5-min Rain = 0
KME1 150013Z 16007KT 13/03 A3021 RMK A01 T01250029  RH  052%=      5-min Rain = 0
KME1 150014Z 17007KT 13/03 A3021 RMK A01 T01250029  RH  052%=      5-min Rain = 0
KME1 150015Z 17009KT 12/03 A302 RMK A01 T01240028  RH  052%=      5-min Rain = 0
KME1 150016Z 16008KT 12/03 A302 RMK A01 T01240028  RH  052%=      5-min Rain = 0
KME1 150017Z 16006KT 12/03 A302 RMK A01 T01240029  RH  052%=      5-min Rain = 0
KME1 150018Z 17007KT 12/03 A302 RMK A01 T01230029  RH  052%=      5-min Rain = 0
KME1 150019Z 16008KT 12/03 A302 RMK A01 T01220028  RH  053%=      5-min Rain = 0
KME1 150020Z 15008KT 12/03 A302 RMK A01 T01220028  RH  053%=      5-min Rain = 0
KME1 150021Z 15008KT 12/03 A302 RMK A01 T01220029  RH  053%=      5-min Rain = 0
KME1 150022Z 16008KT 12/03 A302 RMK A01 T01220029  RH  053%=      5-min Rain = 0
KME1 150023Z 16007KT 12/03 A302 RMK A01 T01210028  RH  053%=      5-min Rain = 0
KME1 150024Z 16008KT 12/03 A302 RMK A01 T01200028  RH  053%=      5-min Rain = 0
KME1 150025Z 16007KT 12/03 A302 RMK A01 T01190028  RH  054%=      5-min Rain = 0
KME1 150026Z 16006KT 12/03 A3021 RMK A01 T01190028  RH  054%=      5-min Rain = 0
KME1 150027Z 15007KT 12/03 A3021 RMK A01 T01180028  RH  054%=      5-min Rain = 0
KME1 150028Z 16006KT 12/03 A3021 RMK A01 T01180028  RH  054%=      5-min Rain = 0
KME1 150029Z 15006KT 12/03 A3021 RMK A01 T01180028  RH  054%=      5-min Rain = 0
KME1 150030Z 16006KT 12/03 A3021 RMK A01 T01170028  RH  054%=      5-min Rain = 0
KME1 150031Z 16006KT 12/03 A302 RMK A01 T01160027  RH  055%=      5-min Rain = 0
KME1 150032Z 16006KT 12/03 A302 RMK A01 T01150027  RH  055%=      5-min Rain = 0
KME1 150033Z 15007KT 12/03 A302 RMK A01 T01150027  RH  055%=      5-min Rain = 0
KME1 150034Z 16007KT 12/03 A302 RMK A01 T01150028  RH  055%=      5-min Rain = 0
KME1 150035Z 16006KT 12/03 A302 RMK A01 T01150028  RH  055%=      5-min Rain = 0
KME1 150036Z 16005KT 11/03 A302 RMK A01 T01140028  RH  055%=      5-min Rain = 0
KME1 150037Z 16006KT 11/03 A302 RMK A01 T01130027  RH  056%=      5-min Rain = 0
KME1 150038Z 16006KT 11/03 A302 RMK A01 T01120027  RH  056%=      5-min Rain = 0
KME1 150039Z 16006KT 11/03 A302 RMK A01 T01110027  RH  056%=      5-min Rain = 0
KME1 150040Z 15005KT 11/03 A302 RMK A01 T01110027  RH  056%=      5-min Rain = 0
KME1 150041Z 16005KT 11/03 A302 RMK A01 T01110027  RH  056%=      5-min Rain = 0
KME1 150042Z 16006KT 11/03 A302 RMK A01 T01100027  RH  056%=      5-min Rain = 0
KME1 150043Z 16004KT 11/03 A302 RMK A01 T01100027  RH  057%=      5-min Rain = 0
KME1 150044Z 16005KT 11/03 A302 RMK A01 T01090027  RH  057%=      5-min Rain = 0
KME1 150045Z 16006KT 11/03 A302 RMK A01 T01070026  RH  057%=      5-min Rain = 0
KME1 150046Z 16005KT 11/03 A302 RMK A01 T01060026  RH  058%=      5-min Rain = 0
KME1 150047Z 15005KT 11/03 A302 RMK A01 T01060026  RH  058%=      5-min Rain = 0
KME1 150048Z 15005KT 11/03 A302 RMK A01 T01060027  RH  058%=      5-min Rain = 0
KME1 150049Z 15005KT 11/03 A302 RMK A01 T01050027  RH  058%=      5-min Rain = 0
KME1 150050Z 15005KT 10/03 A302 RMK A01 T01040027  RH  059%=      5-min Rain = 0
KME1 150051Z 15005KT 10/03 A302 RMK A01 T01030026  RH  059%=      5-min Rain = 0
KME1 150052Z 15005KT 10/03 A302 RMK A01 T01020026  RH  059%=      5-min Rain = 0
KME1 150053Z 15005KT 10/03 A302 RMK A01 T01010026  RH  059%=      5-min Rain = 0
KME1 150054Z 15005KT 10/03 A302 RMK A01 T01010026  RH  060%=      5-min Rain = 0
KME1 150055Z 15005KT 10/03 A302 RMK A01 T01010026  RH  060%=      5-min Rain = 0
KME1 150056Z 15005KT 10/03 A302 RMK A01 T01000027  RH  060%=      5-min Rain = 0
KME1 150057Z 15005KT 10/03 A302 RMK A01 T01000026  RH  060%=      5-min Rain = 0
KME1 150058Z 15005KT 10/03 A302 RMK A01 T00990026  RH  061%=      5-min Rain = 0
KME1 150059Z 15004KT 10/03 A302 RMK A01 T00980026  RH  061%=      5-min Rain = 0
KME1 150100Z 15004KT 10/03 A302 RMK A01 T00980026  RH  061%=      5-min Rain = 0
KME1 150101Z 15005KT 10/03 A3021 RMK A01 T00970026  RH  061%=      5-min Rain = 0
KME1 150102Z 15004KT 10/03 A3021 RMK A01 T00960025  RH  062%=      5-min Rain = 0
KME1 150103Z 15005KT 10/03 A3021 RMK A01 T00950025  RH  062%=      5-min Rain = 0
KME1 150104Z 15005KT 09/03 A3021 RMK A01 T00940025  RH  062%=      5-min Rain = 0
KME1 150105Z 15004KT 09/03 A3021 RMK A01 T00930025  RH  062%=      5-min Rain = 0
KME1 150106Z 15004KT 09/03 A3021 RMK A01 T00920025  RH  063%=      5-min Rain = 0
KME1 150107Z 15004KT 09/03 A3021 RMK A01 T00910025  RH  063%=      5-min Rain = 0
KME1 150108Z 15004KT 09/03 A3021 RMK A01 T00910025  RH  063%=      5-min Rain = 0
KME1 150109Z 15004KT 09/03 A3021 RMK A01 T00910025  RH  063%=      5-min Rain = 0
KME1 150110Z 15004KT 09/02 A3021 RMK A01 T00900024  RH  063%=      5-min Rain = 0
KME1 150111Z 15004KT 09/02 A3021 RMK A01 T00890024  RH  064%=      5-min Rain = 0
KME1 150112Z 15005KT 09/02 A3021 RMK A01 T00880024  RH  064%=      5-min Rain = 0
KME1 150113Z 15004KT 09/02 A3021 RMK A01 T00880024  RH  064%=      5-min Rain = 0
KME1 150114Z 15005KT 09/02 A3021 RMK A01 T00880024  RH  064%=      5-min Rain = 0
KME1 150115Z 15005KT 09/02 A3021 RMK A01 T00870024  RH  065%=      5-min Rain = 0
KME1 150116Z 14004KT 09/02 A3021 RMK A01 T00870024  RH  065%=      5-min Rain = 0
KME1 150117Z 15005KT 09/03 A3021 RMK A01 T00860025  RH  065%=      5-min Rain = 0
KME1 150118Z 14004KT 09/03 A3021 RMK A01 T00860025  RH  065%=      5-min Rain = 0
KME1 150119Z 14004KT 09/03 A3021 RMK A01 T00860025  RH  065%=      5-min Rain = 0
KME1 150120Z 14004KT 09/03 A3021 RMK A01 T00860025  RH  065%=      5-min Rain = 0
KME1 150121Z 14004KT 09/03 A3021 RMK A01 T00860025  RH  065%=      5-min Rain = 0
KME1 150122Z 14004KT 09/03 A3021 RMK A01 T00850025  RH  066%=      5-min Rain = 0
KME1 150123Z 14004KT 09/02 A3021 RMK A01 T00850024  RH  066%=      5-min Rain = 0
KME1 150124Z 14004KT 09/02 A3021 RMK A01 T00850024  RH  066%=      5-min Rain = 0
KME1 150125Z 14004KT 08/02 A3021 RMK A01 T00840024  RH  066%=      5-min Rain = 0
KME1 150126Z 15004KT 08/02 A3021 RMK A01 T00830023  RH  066%=      5-min Rain = 0
KME1 150127Z 15004KT 08/02 A3021 RMK A01 T00820023  RH  066%=      5-min Rain = 0
KME1 150128Z 15004KT 08/02 A3021 RMK A01 T00820024  RH  067%=      5-min Rain = 0
KME1 150129Z 15004KT 08/02 A3021 RMK A01 T00820024  RH  067%=      5-min Rain = 0
KME1 150130Z 15004KT 08/02 A3021 RMK A01 T00810024  RH  067%=      5-min Rain = 0
KME1 150131Z 15004KT 08/02 A3021 RMK A01 T00810024  RH  067%=      5-min Rain = 0
KME1 150132Z 15004KT 08/02 A3022 RMK A01 T00810024  RH  067%=      5-min Rain = 0
KME1 150133Z 15004KT 08/02 A3022 RMK A01 T00810024  RH  067%=      5-min Rain = 0
KME1 150134Z 15003KT 08/02 A3022 RMK A01 T00800024  RH  068%=      5-min Rain = 0
KME1 150135Z 15003KT 08/02 A3022 RMK A01 T00790024  RH  068%=      5-min Rain = 0
KME1 150136Z 15003KT 08/02 A3022 RMK A01 T00780024  RH  068%=      5-min Rain = 0
KME1 150137Z 15003KT 08/02 A3022 RMK A01 T00770024  RH  069%=      5-min Rain = 0
KME1 150138Z 15003KT 08/02 A3022 RMK A01 T00760023  RH  069%=      5-min Rain = 0
KME1 150139Z 14003KT 08/02 A3022 RMK A01 T00760024  RH  070%=      5-min Rain = 0
KME1 150140Z 14002KT 08/03 A3022 RMK A01 T00760025  RH  070%=      5-min Rain = 0
KME1 150141Z 15002KT 08/02 A3022 RMK A01 T00760024  RH  070%=      5-min Rain = 0
KME1 150142Z 15002KT 08/02 A3022 RMK A01 T00760024  RH  070%=      5-min Rain = 0
KME1 150143Z 16002KT 08/02 A3022 RMK A01 T00750024  RH  070%=      5-min Rain = 0
KME1 150144Z 15002KT 08/03 A3022 RMK A01 T00750025  RH  070%=      5-min Rain = 0
KME1 150145Z 15002KT 07/02 A3022 RMK A01 T00740024  RH  070%=      5-min Rain = 0
KME1 150146Z 14003KT 07/02 A3022 RMK A01 T00740024  RH  070%=      5-min Rain = 0
KME1 150147Z 14003KT 07/02 A3022 RMK A01 T00740024  RH  071%=      5-min Rain = 0
KME1 150148Z 14003KT 07/02 A3022 RMK A01 T00740024  RH  071%=      5-min Rain = 0
KME1 150149Z 13002KT 07/03 A3022 RMK A01 T00740025  RH  071%=      5-min Rain = 0
KME1 150150Z 12002KT 07/02 A3022 RMK A01 T00740024  RH  071%=      5-min Rain = 0
KME1 150151Z 12002KT 07/02 A3022 RMK A01 T00740024  RH  070%=      5-min Rain = 0
KME1 150152Z 10001KT 07/02 A3022 RMK A01 T00740023  RH  070%=      5-min Rain = 0
KME1 150153Z 10001KT 07/02 A3022 RMK A01 T00720021  RH  070%=      5-min Rain = 0
KME1 150154Z 12001KT 07/02 A3023 RMK A01 T00710021  RH  070%=      5-min Rain = 0
KME1 150155Z 13001KT 07/02 A3023 RMK A01 T00700021  RH  071%=      5-min Rain = 0
KME1 150156Z 15001KT 07/02 A3023 RMK A01 T00690022  RH  072%=      5-min Rain = 0
KME1 150157Z 14002KT 07/02 A3023 RMK A01 T00680022  RH  073%=      5-min Rain = 0
KME1 150158Z 14002KT 07/02 A3023 RMK A01 T00660021  RH  073%=      5-min Rain = 0
KME1 150159Z 15002KT 06/02 A3023 RMK A01 T00630020  RH  074%=      5-min Rain = 0
KME1 150200Z 16001KT 06/02 A3023 RMK A01 T00600018  RH  074%=      5-min Rain = 0
KME1 150201Z 16002KT 06/02 A3023 RMK A01 T00580019  RH  076%=      5-min Rain = 0
KME1 150202Z 16003KT 06/02 A3023 RMK A01 T00580022  RH  077%=      5-min Rain = 0
KME1 150203Z 16002KT 06/02 A3023 RMK A01 T00590022  RH  077%=      5-min Rain = 0
KME1 150204Z 16002KT 06/02 A3023 RMK A01 T00600021  RH  076%=      5-min Rain = 0
KME1 150205Z 16003KT 06/02 A3023 RMK A01 T00600021  RH  076%=      5-min Rain = 0
KME1 150206Z 16003KT 06/02 A3023 RMK A01 T00610023  RH  077%=      5-min Rain = 0
KME1 150207Z 17003KT 06/02 A3023 RMK A01 T00620024  RH  076%=      5-min Rain = 0
KME1 150208Z 17003KT 06/02 A3023 RMK A01 T00640023  RH  075%=      5-min Rain = 0
KME1 150209Z 18003KT 06/02 A3023 RMK A01 T00640022  RH  075%=      5-min Rain = 0
KME1 150210Z 18003KT 06/02 A3024 RMK A01 T00640022  RH  074%=      5-min Rain = 0
KME1 150211Z 18003KT 06/02 A3024 RMK A01 T00630021  RH  074%=      5-min Rain = 0
KME1 150212Z 18003KT 06/02 A3024 RMK A01 T00610020  RH  075%=      5-min Rain = 0
KME1 150213Z 18003KT 06/02 A3024 RMK A01 T00600021  RH  076%=      5-min Rain = 0
KME1 150214Z 19003KT 06/02 A3024 RMK A01 T00600022  RH  076%=      5-min Rain = 0
KME1 150215Z 19004KT 06/02 A3024 RMK A01 T00600021  RH  076%=      5-min Rain = 0
KME1 150216Z 19004KT 06/02 A3024 RMK A01 T00590021  RH  076%=      5-min Rain = 0
KME1 150217Z 18004KT 06/02 A3024 RMK A01 T00590021  RH  077%=      5-min Rain = 0
KME1 150218Z 18004KT 06/02 A3024 RMK A01 T00580021  RH  077%=      5-min Rain = 0
KME1 150219Z 18004KT 06/02 A3024 RMK A01 T00570021  RH  077%=      5-min Rain = 0
KME1 150220Z 18004KT 06/02 A3024 RMK A01 T00560021  RH  078%=      5-min Rain = 0
KME1 150221Z 18004KT 06/02 A3024 RMK A01 T00560021  RH  078%=      5-min Rain = 0
KME1 150222Z 18004KT 06/02 A3024 RMK A01 T00560022  RH  079%=      5-min Rain = 0
KME1 150223Z 18004KT 06/02 A3024 RMK A01 T00550021  RH  079%=      5-min Rain = 0
KME1 150224Z 18004KT 06/02 A3024 RMK A01 T00550022  RH  079%=      5-min Rain = 0
KME1 150225Z 18004KT 05/02 A3024 RMK A01 T00540021  RH  079%=      5-min Rain = 0
KME1 150226Z 18004KT 05/02 A3024 RMK A01 T00540022  RH  080%=      5-min Rain = 0
KME1 150227Z 18003KT 05/02 A3024 RMK A01 T00540022  RH  079%=      5-min Rain = 0
KME1 150228Z 18003KT 05/02 A3024 RMK A01 T00540021  RH  079%=      5-min Rain = 0
KME1 150229Z 18003KT 05/02 A3024 RMK A01 T00540021  RH  079%=      5-min Rain = 0
KME1 150230Z 17003KT 05/02 A3024 RMK A01 T00540021  RH  079%=      5-min Rain = 0
KME1 150231Z 17003KT 05/02 A3024 RMK A01 T00530021  RH  080%=      5-min Rain = 0
KME1 150232Z 17002KT 05/02 A3024 RMK A01 T00530021  RH  080%=      5-min Rain = 0
KME1 150233Z 17002KT 05/02 A3024 RMK A01 T00530021  RH  080%=      5-min Rain = 0
KME1 150234Z 17002KT 05/02 A3024 RMK A01 T00520021  RH  080%=      5-min Rain = 0
KME1 150235Z 17002KT 05/02 A3024 RMK A01 T00520021  RH  081%=      5-min Rain = 0
KME1 150236Z 17003KT 05/02 A3024 RMK A01 T00520021  RH  081%=      5-min Rain = 0
KME1 150237Z 17003KT 05/02 A3024 RMK A01 T00520021  RH  081%=      5-min Rain = 0
KME1 150238Z 17003KT 05/02 A3024 RMK A01 T00520021  RH  080%=      5-min Rain = 0
KME1 150239Z 17003KT 05/02 A3024 RMK A01 T00520021  RH  080%=      5-min Rain = 0
KME1 150240Z 18004KT 05/02 A3024 RMK A01 T00530021  RH  080%=      5-min Rain = 0
KME1 150241Z 18004KT 05/02 A3024 RMK A01 T00540022  RH  080%=      5-min Rain = 0
KME1 150242Z 18004KT 06/02 A3024 RMK A01 T00550021  RH  079%=      5-min Rain = 0
KME1 150243Z 18004KT 06/02 A3024 RMK A01 T00550021  RH  079%=      5-min Rain = 0
KME1 150244Z 18004KT 05/02 A3024 RMK A01 T00540020  RH  079%=      5-min Rain = 0
KME1 150245Z 18004KT 05/02 A3024 RMK A01 T00540021  RH  079%=      5-min Rain = 0
KME1 150246Z 18004KT 05/02 A3024 RMK A01 T00540021  RH  079%=      5-min Rain = 0
KME1 150247Z 18005KT 05/02 A3024 RMK A01 T00540021  RH  079%=      5-min Rain = 0
KME1 150248Z 18005KT 05/02 A3024 RMK A01 T00540022  RH  080%=      5-min Rain = 0
KME1 150249Z 19005KT 06/02 A3024 RMK A01 T00550022  RH  080%=      5-min Rain = 0
KME1 150250Z 18004KT 06/02 A3024 RMK A01 T00560023  RH  079%=      5-min Rain = 0
KME1 150251Z 19005KT 06/02 A3024 RMK A01 T00570023  RH  079%=      5-min Rain = 0
KME1 150252Z 18005KT 06/02 A3024 RMK A01 T00570023  RH  079%=      5-min Rain = 0
KME1 150253Z 18005KT 06/02 A3024 RMK A01 T00580024  RH  078%=      5-min Rain = 0
KME1 150254Z 18005KT 06/02 A3024 RMK A01 T00580023  RH  078%=      5-min Rain = 0
KME1 150255Z 19005KT 06/02 A3024 RMK A01 T00580023  RH  078%=      5-min Rain = 0
KME1 150256Z 19005KT 06/02 A3024 RMK A01 T00590023  RH  078%=      5-min Rain = 0
KME1 150257Z 19005KT 06/02 A3024 RMK A01 T00590023  RH  078%=      5-min Rain = 0
KME1 150258Z 18006KT 06/02 A3024 RMK A01 T00590024  RH  078%=      5-min Rain = 0
KME1 150259Z 18006KT 06/02 A3024 RMK A01 T00590024  RH  078%=      5-min Rain = 0
KME1 150300Z 18006KT 06/02 A3024 RMK A01 T00600024  RH  078%=      5-min Rain = 0
KME1 150301Z 17007KT 06/02 A3024 RMK A01 T00610024  RH  077%=      5-min Rain = 0
KME1 150302Z 18007KT 06/03 A3024 RMK A01 T00620026  RH  077%=      5-min Rain = 0
KME1 150303Z 17007KT 07/03 A3024 RMK A01 T00650028  RH  077%=      5-min Rain = 0
KME1 150304Z 17007KT 07/03 A3024 RMK A01 T00670029  RH  076%=      5-min Rain = 0
KME1 150305Z 18008KT 07/03 A3024 RMK A01 T00700029  RH  075%=      5-min Rain = 0
KME1 150306Z 17007KT 07/03 A3024 RMK A01 T00720029  RH  074%=      5-min Rain = 0
KME1 150307Z 17006KT 07/03 A3024 RMK A01 T00740028  RH  073%=      5-min Rain = 0
KME1 150308Z 18007KT 07/03 A3024 RMK A01 T00740028  RH  073%=      5-min Rain = 0
KME1 150309Z 17008KT 08/03 A3024 RMK A01 T00750027  RH  072%=      5-min Rain = 0
KME1 150310Z 18006KT 08/03 A3024 RMK A01 T00750027  RH  072%=      5-min Rain = 0
KME1 150311Z 17008KT 08/03 A3024 RMK A01 T00750027  RH  071%=      5-min Rain = 0
KME1 150312Z 17007KT 08/03 A3024 RMK A01 T00760027  RH  071%=      5-min Rain = 0
KME1 150313Z 17009KT 08/03 A3024 RMK A01 T00760027  RH  071%=      5-min Rain = 0
KME1 150314Z 17009KT 08/03 A3024 RMK A01 T00770027  RH  070%=      5-min Rain = 0
KME1 150315Z 17010KT 08/03 A3024 RMK A01 T00790027  RH  069%=      5-min Rain = 0
KME1 150316Z 18009KT 08/03 A3024 RMK A01 T00800026  RH  069%=      5-min Rain = 0
KME1 150317Z 17009KT 08/03 A3024 RMK A01 T00810026  RH  068%=      5-min Rain = 0
KME1 150318Z 18008KT 08/03 A3024 RMK A01 T00810026  RH  068%=      5-min Rain = 0
KME1 150319Z 18011KT 08/03 A3024 RMK A01 T00810025  RH  068%=      5-min Rain = 0
KME1 150320Z 18009KT 08/03 A3024 RMK A01 T00820025  RH  067%=      5-min Rain = 0
KME1 150321Z 18011KT 08/03 A3024 RMK A01 T00820025  RH  067%=      5-min Rain = 0
KME1 150322Z 18009KT 08/03 A3024 RMK A01 T00820025  RH  067%=      5-min Rain = 0
KME1 150323Z 17011KT 08/02 A3024 RMK A01 T00820024  RH  067%=      5-min Rain = 0
KME1 150324Z 17011KT 08/02 A3024 RMK A01 T00820024  RH  067%=      5-min Rain = 0
KME1 150325Z 18010KT 08/02 A3024 RMK A01 T00830023  RH  066%=      5-min Rain = 0
KME1 150326Z 17011KT 08/02 A3024 RMK A01 T00830023  RH  066%=      5-min Rain = 0
KME1 150327Z 17009KT 08/02 A3024 RMK A01 T00830023  RH  066%=      5-min Rain = 0
KME1 150328Z 17010KT 08/02 A3024 RMK A01 T00820023  RH  066%=      5-min Rain = 0
KME1 150329Z 17011KT 08/02 A3024 RMK A01 T00820022  RH  066%=      5-min Rain = 0
KME1 150330Z 17010KT 08/02 A3024 RMK A01 T00820023  RH  066%=      5-min Rain = 0
KME1 150331Z 17011KT 08/02 A3024 RMK A01 T00820022  RH  066%=      5-min Rain = 0
KME1 150332Z 17012KT 08/02 A3024 RMK A01 T00820022  RH  066%=      5-min Rain = 0
KME1 150333Z 17011KT 08/02 A3024 RMK A01 T00820022  RH  066%=      5-min Rain = 0
KME1 150334Z 17009KT 08/02 A3024 RMK A01 T00820022  RH  066%=      5-min Rain = 0
KME1 150335Z 17008KT 08/02 A3024 RMK A01 T00820022  RH  066%=      5-min Rain = 0
KME1 150336Z 17012KT 08/02 A3024 RMK A01 T00820022  RH  066%=      5-min Rain = 0
KME1 150337Z 17010KT 08/02 A3024 RMK A01 T00810021  RH  066%=      5-min Rain = 0
KME1 150338Z 17011KT 08/02 A3024 RMK A01 T00810021  RH  066%=      5-min Rain = 0
KME1 150339Z 17011KT 08/02 A3024 RMK A01 T00810021  RH  066%=      5-min Rain = 0
KME1 150340Z 17011KT 08/02 A3024 RMK A01 T00810021  RH  066%=      5-min Rain = 0
KME1 150341Z 18008KT 08/02 A3024 RMK A01 T00810021  RH  066%=      5-min Rain = 0
KME1 150342Z 18009KT 08/02 A3024 RMK A01 T00790020  RH  066%=      5-min Rain = 0
KME1 150343Z 18011KT 08/02 A3024 RMK A01 T00790020  RH  066%=      5-min Rain = 0
KME1 150344Z 17010KT 08/02 A3024 RMK A01 T00790020  RH  066%=      5-min Rain = 0
KME1 150345Z 18011KT 08/02 A3024 RMK A01 T00790020  RH  066%=      5-min Rain = 0
KME1 150346Z 17011KT 08/02 A3024 RMK A01 T00800020  RH  066%=      5-min Rain = 0
KME1 150347Z 18011KT 08/02 A3024 RMK A01 T00800020  RH  066%=      5-min Rain = 0
KME1 150348Z 18009KT 08/02 A3024 RMK A01 T00810020  RH  065%=      5-min Rain = 0
KME1 150349Z 17011KT 08/02 A3024 RMK A01 T00800020  RH  065%=      5-min Rain = 0
KME1 150350Z 17010KT 08/02 A3024 RMK A01 T00800019  RH  066%=      5-min Rain = 0
KME1 150351Z 18008KT 08/02 A3024 RMK A01 T00800019  RH  066%=      5-min Rain = 0
KME1 150352Z 18009KT 08/02 A3024 RMK A01 T00790019  RH  066%=      5-min Rain = 0
KME1 150353Z 17010KT 08/02 A3024 RMK A01 T00780019  RH  066%=      5-min Rain = 0
KME1 150354Z 17010KT 08/02 A3024 RMK A01 T00780019  RH  066%=      5-min Rain = 0
KME1 150355Z 17010KT 08/02 A3024 RMK A01 T00780019  RH  066%=      5-min Rain = 0
KME1 150356Z 17011KT 08/02 A3024 RMK A01 T00780019  RH  066%=      5-min Rain = 0
KME1 150357Z 17009KT 08/02 A3024 RMK A01 T00780019  RH  066%=      5-min Rain = 0
KME1 150358Z 17012KT 08/02 A3024 RMK A01 T00780018  RH  066%=      5-min Rain = 0
KME1 150359Z 17012KT 08/02 A3024 RMK A01 T00780018  RH  066%=      5-min Rain = 0
KME1 150400Z 17012KT 08/02 A3024 RMK A01 T00790018  RH  065%=      5-min Rain = 0
KME1 150401Z 17010KT 08/02 A3024 RMK A01 T00790018  RH  065%=      5-min Rain = 0
KME1 150402Z 17010KT 08/02 A3024 RMK A01 T00800018  RH  065%=      5-min Rain = 0
KME1 150403Z 17010KT 08/02 A3024 RMK A01 T00800018  RH  065%=      5-min Rain = 0
KME1 150404Z 17009KT 08/02 A3024 RMK A01 T00790017  RH  065%=      5-min Rain = 0
KME1 150405Z 17012KT 08/02 A3024 RMK A01 T00780017  RH  065%=      5-min Rain = 0
KME1 150406Z 17010KT 08/02 A3024 RMK A01 T00780017  RH  065%=      5-min Rain = 0
KME1 150407Z 17008KT 08/02 A3024 RMK A01 T00780016  RH  065%=      5-min Rain = 0
KME1 150408Z 17010KT 08/02 A3024 RMK A01 T00770016  RH  065%=      5-min Rain = 0
KME1 150409Z 17010KT 08/02 A3024 RMK A01 T00770016  RH  065%=      5-min Rain = 0
KME1 150410Z 17011KT 08/02 A3024 RMK A01 T00770017  RH  065%=      5-min Rain = 0
KME1 150411Z 17009KT 08/02 A3023 RMK A01 T00770016  RH  065%=      5-min Rain = 0
KME1 150412Z 17011KT 08/02 A3023 RMK A01 T00770016  RH  065%=      5-min Rain = 0
KME1 150413Z 17012KT 08/02 A3023 RMK A01 T00770016  RH  065%=      5-min Rain = 0
KME1 150414Z 17010KT 08/02 A3023 RMK A01 T00770016  RH  065%=      5-min Rain = 0
KME1 150415Z 17011KT 08/02 A3023 RMK A01 T00780016  RH  065%=      5-min Rain = 0
KME1 150416Z 17011G16KT 08/02 A3023 RMK A01 T00780016  RH  065%=      5-min Rain = 0
KME1 150417Z 17014KT 08/02 A3023 RMK A01 T00780015  RH  064%=      5-min Rain = 0
KME1 150418Z 17012KT 08/02 A3023 RMK A01 T00790015  RH  064%=      5-min Rain = 0
KME1 150419Z 17011KT 08/02 A3023 RMK A01 T00790015  RH  064%=      5-min Rain = 0
KME1 150420Z 17012KT 08/02 A3023 RMK A01 T00790015  RH  064%=      5-min Rain = 0
KME1 150421Z 17013KT 08/02 A3023 RMK A01 T00790015  RH  064%=      5-min Rain = 0
KME1 150422Z 17013KT 08/02 A3023 RMK A01 T00790015  RH  064%=      5-min Rain = 0
KME1 150423Z 17012KT 08/02 A3023 RMK A01 T00790015  RH  064%=      5-min Rain = 0
KME1 150424Z 17011KT 08/02 A3023 RMK A01 T00790015  RH  064%=      5-min Rain = 0
KME1 150425Z 17010KT 08/01 A3023 RMK A01 T00780014  RH  064%=      5-min Rain = 0
KME1 150426Z 17011KT 08/01 A3023 RMK A01 T00770014  RH  064%=      5-min Rain = 0
KME1 150427Z 17010KT 08/01 A3023 RMK A01 T00770014  RH  065%=      5-min Rain = 0
KME1 150428Z 17010KT 08/01 A3023 RMK A01 T00760014  RH  065%=      5-min Rain = 0
KME1 150429Z 17011G16KT 08/01 A3023 RMK A01 T00760014  RH  065%=      5-min Rain = 0
KME1 150430Z 17011KT 08/01 A3022 RMK A01 T00760014  RH  065%=      5-min Rain = 0
KME1 150431Z 16012KT 08/01 A3023 RMK A01 T00760014  RH  065%=      5-min Rain = 0
KME1 150432Z 16010KT 08/01 A3023 RMK A01 T00760014  RH  065%=      5-min Rain = 0
KME1 150433Z 17011KT 08/01 A3023 RMK A01 T00750014  RH  065%=      5-min Rain = 0
KME1 150434Z 16008KT 08/01 A3023 RMK A01 T00750014  RH  065%=      5-min Rain = 0
KME1 150435Z 17007KT 08/01 A3023 RMK A01 T00750014  RH  065%=      5-min Rain = 0
KME1 150436Z 17008KT 07/01 A3023 RMK A01 T00730013  RH  065%=      5-min Rain = 0
KME1 150437Z 17011KT 07/01 A3023 RMK A01 T00730013  RH  066%=      5-min Rain = 0
KME1 150438Z 17007KT 07/01 A3022 RMK A01 T00730013  RH  066%=      5-min Rain = 0
KME1 150439Z 17008KT 07/01 A3022 RMK A01 T00730013  RH  066%=      5-min Rain = 0
KME1 150440Z 17008KT 07/01 A3022 RMK A01 T00730013  RH  066%=      5-min Rain = 0
KME1 150441Z 17008KT 07/01 A3022 RMK A01 T00730013  RH  066%=      5-min Rain = 0
KME1 150442Z 16008KT 07/01 A3022 RMK A01 T00730013  RH  066%=      5-min Rain = 0
KME1 150443Z 17011KT 07/01 A3022 RMK A01 T00720013  RH  066%=      5-min Rain = 0
KME1 150444Z 17010KT 07/01 A3022 RMK A01 T00720013  RH  066%=      5-min Rain = 0
KME1 150445Z 17009KT 07/01 A3022 RMK A01 T00730013  RH  066%=      5-min Rain = 0
KME1 150446Z 17009KT 07/01 A3023 RMK A01 T00730013  RH  066%=      5-min Rain = 0
KME1 150447Z 17009KT 07/01 A3023 RMK A01 T00730013  RH  066%=      5-min Rain = 0
KME1 150448Z 17008KT 07/01 A3022 RMK A01 T00720013  RH  066%=      5-min Rain = 0
KME1 150449Z 17009KT 07/01 A3022 RMK A01 T00720013  RH  066%=      5-min Rain = 0
KME1 150450Z 17009KT 07/01 A3022 RMK A01 T00710012  RH  066%=      5-min Rain = 0
KME1 150451Z 17011KT 07/01 A3022 RMK A01 T00710012  RH  066%=      5-min Rain = 0
KME1 150452Z 17010KT 07/01 A3022 RMK A01 T00720013  RH  066%=      5-min Rain = 0
KME1 150453Z 17011KT 07/01 A3022 RMK A01 T00720013  RH  066%=      5-min Rain = 0
KME1 150454Z 17011KT 07/01 A3022 RMK A01 T00720012  RH  066%=      5-min Rain = 0
KME1 150455Z 17009KT 07/01 A3022 RMK A01 T00720012  RH  066%=      5-min Rain = 0
KME1 150456Z 17011KT 07/01 A3022 RMK A01 T00720012  RH  066%=      5-min Rain = 0
KME1 150457Z 17012G18KT 07/01 A3022 RMK A01 T00720012  RH  066%=      5-min Rain = 0
KME1 150458Z 16012KT 07/01 A3022 RMK A01 T00720012  RH  066%=      5-min Rain = 0
KME1 150459Z 17010KT 07/01 A3022 RMK A01 T00730012  RH  066%=      5-min Rain = 0
KME1 150500Z 17011KT 07/01 A3022 RMK A01 T00730012  RH  065%=      5-min Rain = 0
KME1 150501Z 16010KT 07/01 A3022 RMK A01 T00730012  RH  065%=      5-min Rain = 0
KME1 150502Z 17011KT 07/01 A3022 RMK A01 T00720012  RH  065%=      5-min Rain = 0
KME1 150503Z 17009KT 07/01 A3022 RMK A01 T00720012  RH  066%=      5-min Rain = 0
KME1 150504Z 17008KT 07/01 A3022 RMK A01 T00720012  RH  066%=      5-min Rain = 0
KME1 150505Z 17009KT 07/01 A3022 RMK A01 T00710012  RH  066%=      5-min Rain = 0
KME1 150506Z 17008KT 07/01 A3022 RMK A01 T00700011  RH  066%=      5-min Rain = 0
KME1 150507Z 17008KT 07/01 A3022 RMK A01 T00700011  RH  066%=      5-min Rain = 0
KME1 150508Z 17009KT 07/01 A3022 RMK A01 T00700011  RH  066%=      5-min Rain = 0
KME1 150509Z 17010KT 07/01 A3022 RMK A01 T00690011  RH  066%=      5-min Rain = 0
KME1 150510Z 17009KT 07/01 A3022 RMK A01 T00700011  RH  066%=      5-min Rain = 0
KME1 150511Z 17008KT 07/01 A3022 RMK A01 T00700011  RH  066%=      5-min Rain = 0
KME1 150512Z 17008KT 07/01 A3022 RMK A01 T00700011  RH  066%=      5-min Rain = 0
KME1 150513Z 17008KT 07/01 A3022 RMK A01 T00700011  RH  066%=      5-min Rain = 0
KME1 150514Z 17008KT 07/01 A3022 RMK A01 T00700011  RH  066%=      5-min Rain = 0
KME1 150515Z 17007KT 07/01 A3022 RMK A01 T00690011  RH  067%=      5-min Rain = 0
KME1 150516Z 17008KT 07/01 A3022 RMK A01 T00690011  RH  067%=      5-min Rain = 0
KME1 150517Z 17008KT 07/01 A3022 RMK A01 T00680011  RH  067%=      5-min Rain = 0
KME1 150518Z 16009KT 07/01 A3022 RMK A01 T00680011  RH  067%=      5-min Rain = 0
KME1 150519Z 17010KT 07/01 A3022 RMK A01 T00680011  RH  067%=      5-min Rain = 0
KME1 150520Z 17010KT 07/01 A3022 RMK A01 T00680011  RH  067%=      5-min Rain = 0
KME1 150521Z 17010KT 07/01 A3022 RMK A01 T00680011  RH  067%=      5-min Rain = 0
KME1 150522Z 17010KT 07/01 A3022 RMK A01 T00690011  RH  067%=      5-min Rain = 0
KME1 150523Z 17008KT 07/01 A3022 RMK A01 T00690011  RH  067%=      5-min Rain = 0
KME1 150524Z 18006KT 07/01 A3022 RMK A01 T00690011  RH  066%=      5-min Rain = 0
KME1 150525Z 17009KT 07/01 A3022 RMK A01 T00680011  RH  067%=      5-min Rain = 0
KME1 150526Z 18007KT 07/01 A3022 RMK A01 T00680011  RH  067%=      5-min Rain = 0
KME1 150527Z 18008KT 07/01 A3022 RMK A01 T00680011  RH  067%=      5-min Rain = 0
KME1 150528Z 17009KT 07/01 A3022 RMK A01 T00680011  RH  067%=      5-min Rain = 0
KME1 150529Z 17008KT 07/01 A3022 RMK A01 T00670010  RH  067%=      5-min Rain = 0
KME1 150530Z 17009KT 07/01 A3022 RMK A01 T00680010  RH  067%=      5-min Rain = 0
KME1 150531Z 17008KT 07/01 A3022 RMK A01 T00680010  RH  067%=      5-min Rain = 0
KME1 150532Z 17007KT 07/01 A3022 RMK A01 T00680011  RH  067%=      5-min Rain = 0
KME1 150533Z 17007KT 07/01 A3022 RMK A01 T00670010  RH  067%=      5-min Rain = 0
KME1 150534Z 17008KT 07/01 A3022 RMK A01 T00670010  RH  067%=      5-min Rain = 0
KME1 150535Z 18009KT 07/01 A3022 RMK A01 T00670010  RH  067%=      5-min Rain = 0
KME1 150536Z 17007KT 07/01 A3022 RMK A01 T00670010  RH  067%=      5-min Rain = 0
KME1 150537Z 17008KT 07/01 A3022 RMK A01 T00660010  RH  067%=      5-min Rain = 0
KME1 150538Z 17007KT 07/01 A3022 RMK A01 T00660010  RH  067%=      5-min Rain = 0
KME1 150539Z 17009KT 07/01 A3022 RMK A01 T00660010  RH  068%=      5-min Rain = 0
KME1 150540Z 17007KT 07/01 A3022 RMK A01 T00660010  RH  068%=      5-min Rain = 0
KME1 150541Z 17008KT 07/01 A3022 RMK A01 T00660010  RH  068%=      5-min Rain = 0
KME1 150542Z 17007KT 07/01 A3022 RMK A01 T00660010  RH  068%=      5-min Rain = 0
KME1 150543Z 17008KT 07/01 A3022 RMK A01 T00660010  RH  067%=      5-min Rain = 0
KME1 150544Z 17007KT 07/01 A3022 RMK A01 T00660010  RH  067%=      5-min Rain = 0
KME1 150545Z 17008KT 07/01 A3022 RMK A01 T00660010  RH  067%=      5-min Rain = 0
KME1 150546Z 17007KT 07/01 A3022 RMK A01 T00660010  RH  067%=      5-min Rain = 0
KME1 150547Z 17007KT 07/01 A3022 RMK A01 T00660010  RH  067%=      5-min Rain = 0
KME1 150548Z 16007KT 07/01 A3021 RMK A01 T00650010  RH  068%=      5-min Rain = 0
KME1 150549Z 16007KT 07/01 A3021 RMK A01 T00650009  RH  068%=      5-min Rain = 0
KME1 150550Z 16007KT 07/01 A3021 RMK A01 T00650009  RH  068%=      5-min Rain = 0
KME1 150551Z 16008KT 06/01 A3021 RMK A01 T00640009  RH  068%=      5-min Rain = 0
KME1 150552Z 16009KT 06/01 A3021 RMK A01 T00640009  RH  068%=      5-min Rain = 0
KME1 150553Z 17008KT 06/01 A3021 RMK A01 T00640009  RH  068%=      5-min Rain = 0
KME1 150554Z 16008KT 06/01 A3021 RMK A01 T00640009  RH  068%=      5-min Rain = 0
KME1 150555Z 16008KT 06/01 A3021 RMK A01 T00640009  RH  068%=      5-min Rain = 0
KME1 150556Z 16006KT 06/01 A3021 RMK A01 T00640009  RH  068%=      5-min Rain = 0
KME1 150557Z 16006KT 06/01 A3021 RMK A01 T00640009  RH  068%=      5-min Rain = 0
KME1 150558Z 17007KT 06/01 A3021 RMK A01 T00630009  RH  068%=      5-min Rain = 0
KME1 150559Z 17008KT 06/01 A3021 RMK A01 T00630009  RH  068%=      5-min Rain = 0

Page generated in 0.1235 seconds.